<?xml version='1.0' encoding='UTF-8'?><gpx version="1.1" creator="JPX - https://github.com/jenetics/jpx" xmlns="http://www.topografix.com/GPX/1/1"><trk><trkseg><trkpt lat="44.736979294180514" lon="8.335370703963804"><ele>153.0</ele><time>2026-03-28T10:25:13Z</time></trkpt><trkpt lat="44.737027795036525" lon="8.335305477693474"><ele>153.0</ele><time>2026-03-28T10:26:09.999Z</time></trkpt><trkpt lat="44.737088509844575" lon="8.335258593084479"><ele>153.0</ele><time>2026-03-28T10:26:16.998Z</time></trkpt><trkpt lat="44.737156229206" lon="8.335217202254077"><ele>153.0</ele><time>2026-03-28T10:26:23.998Z</time></trkpt><trkpt lat="44.73722053748026" lon="8.335176628849835"><ele>153.0</ele><time>2026-03-28T10:26:30.998Z</time></trkpt><trkpt lat="44.73727881190096" lon="8.335142819396088"><ele>153.0</ele><time>2026-03-28T10:26:35Z</time></trkpt><trkpt lat="44.73733426714259" lon="8.335100270159117"><ele>153.0</ele><time>2026-03-28T10:26:41Z</time></trkpt><trkpt lat="44.73738727572386" lon="8.33503426563565"><ele>153.0</ele><time>2026-03-28T10:26:47Z</time></trkpt><trkpt lat="44.73744239080497" lon="8.334982524056699"><ele>153.0</ele><time>2026-03-28T10:26:52Z</time></trkpt><trkpt lat="44.73750577690859" lon="8.334941762458673"><ele>153.0</ele><time>2026-03-28T10:26:58Z</time></trkpt><trkpt lat="44.73755847166552" lon="8.334890021620831"><ele>153.0</ele><time>2026-03-28T10:27:02Z</time></trkpt><trkpt lat="44.73761886103441" lon="8.334852436486248"><ele>153.0</ele><time>2026-03-28T10:27:08Z</time></trkpt><trkpt lat="44.73768142719341" lon="8.334896737262776"><ele>153.0</ele><time>2026-03-28T10:27:13Z</time></trkpt><trkpt lat="44.73773902557782" lon="8.33496381837348"><ele>153.0</ele><time>2026-03-28T10:27:33Z</time></trkpt><trkpt lat="44.737786912188824" lon="8.335045129853725"><ele>152.85714285714286</ele><time>2026-03-28T10:27:38Z</time></trkpt><trkpt lat="44.7378181309865" lon="8.335139260443807"><ele>152.71428571428572</ele><time>2026-03-28T10:27:48Z</time></trkpt><trkpt lat="44.737849679554145" lon="8.335238223105428"><ele>152.57142857142856</ele><time>2026-03-28T10:27:53.999Z</time></trkpt><trkpt lat="44.737886162218324" lon="8.335331768800167"><ele>152.42857142857144</ele><time>2026-03-28T10:27:59.999Z</time></trkpt><trkpt lat="44.73792194804261" lon="8.33542952552147"><ele>152.2857142857143</ele><time>2026-03-28T10:28:05.999Z</time></trkpt><trkpt lat="44.73795718041843" lon="8.335511076189675"><ele>152.14285714285714</ele><time>2026-03-28T10:28:09.999Z</time></trkpt><trkpt lat="44.73798974034114" lon="8.335603458530924"><ele>152.0</ele><time>2026-03-28T10:28:14.999Z</time></trkpt><trkpt lat="44.7380181271263" lon="8.33568754822002"><ele>152.0</ele><time>2026-03-28T10:28:19.999Z</time></trkpt><trkpt lat="44.73798069846571" lon="8.335762715630342"><ele>152.0</ele><time>2026-03-28T10:28:26.999Z</time></trkpt><trkpt lat="44.73793871335454" lon="8.335836104608791"><ele>152.0</ele><time>2026-03-28T10:28:33.999Z</time></trkpt><trkpt lat="44.73794709106924" lon="8.335932443031549"><ele>152.0</ele><time>2026-03-28T10:28:41Z</time></trkpt><trkpt lat="44.73795949291554" lon="8.3360323830643"><ele>152.0</ele><time>2026-03-28T10:28:48Z</time></trkpt><trkpt lat="44.73797703899368" lon="8.336118186734383"><ele>152.0</ele><time>2026-03-28T10:28:52Z</time></trkpt><trkpt lat="44.737994419121726" lon="8.336219617050013"><ele>152.0</ele><time>2026-03-28T10:28:58Z</time></trkpt><trkpt lat="44.73801149387381" lon="8.336309000690372"><ele>152.0</ele><time>2026-03-28T10:29:03Z</time></trkpt><trkpt lat="44.7380330152683" lon="8.336407745184465"><ele>152.0</ele><time>2026-03-28T10:29:09Z</time></trkpt><trkpt lat="44.73805143460054" lon="8.336503992145206"><ele>152.0</ele><time>2026-03-28T10:29:15Z</time></trkpt><trkpt lat="44.73807111236588" lon="8.336598317488642"><ele>152.0</ele><time>2026-03-28T10:29:22Z</time></trkpt><trkpt lat="44.73808987947729" lon="8.336684966943336"><ele>152.0</ele><time>2026-03-28T10:29:28Z</time></trkpt><trkpt lat="44.73810670639206" lon="8.336787537978108"><ele>152.0</ele><time>2026-03-28T10:29:34Z</time></trkpt><trkpt lat="44.73812370679335" lon="8.33687770671596"><ele>152.0</ele><time>2026-03-28T10:29:39Z</time></trkpt><trkpt lat="44.73814371000309" lon="8.336980124417849"><ele>152.0</ele><time>2026-03-28T10:29:45Z</time></trkpt><trkpt lat="44.738197582765" lon="8.337036287577787"><ele>152.0</ele><time>2026-03-28T10:29:51Z</time></trkpt><trkpt lat="44.73824632807806" lon="8.337098536637706"><ele>152.0</ele><time>2026-03-28T10:29:57.999Z</time></trkpt><trkpt lat="44.73831729127198" lon="8.337138791505515"><ele>152.0</ele><time>2026-03-28T10:30:02.999Z</time></trkpt><trkpt lat="44.738382775260604" lon="8.337168455339818"><ele>152.0</ele><time>2026-03-28T10:30:07.999Z</time></trkpt><trkpt lat="44.73845272644464" lon="8.337203906486309"><ele>152.0</ele><time>2026-03-28T10:30:13.999Z</time></trkpt><trkpt lat="44.73852257027531" lon="8.337239293482005"><ele>152.0</ele><time>2026-03-28T10:30:19.999Z</time></trkpt><trkpt lat="44.73858658027984" lon="8.337273018717918"><ele>152.0</ele><time>2026-03-28T10:30:25.999Z</time></trkpt><trkpt lat="44.7386483701962" lon="8.337296112374435"><ele>152.0</ele><time>2026-03-28T10:30:31.999Z</time></trkpt><trkpt lat="44.7387147015395" lon="8.33732107617764"><ele>152.0</ele><time>2026-03-28T10:30:37.999Z</time></trkpt><trkpt lat="44.73878407314324" lon="8.337340440245796"><ele>152.0</ele><time>2026-03-28T10:30:44Z</time></trkpt><trkpt lat="44.738842079043096" lon="8.337375663428245"><ele>152.0</ele><time>2026-03-28T10:30:50Z</time></trkpt><trkpt lat="44.738905459461314" lon="8.337409440496248"><ele>152.0</ele><time>2026-03-28T10:30:55Z</time></trkpt><trkpt lat="44.73897262201294" lon="8.337431789777042"><ele>152.0</ele><time>2026-03-28T10:31:01Z</time></trkpt><trkpt lat="44.73903291100285" lon="8.337474866270215"><ele>152.0</ele><time>2026-03-28T10:31:06Z</time></trkpt><trkpt lat="44.739095604334906" lon="8.337500235598009"><ele>152.0</ele><time>2026-03-28T10:31:11Z</time></trkpt><trkpt lat="44.7391660111656" lon="8.337537585042332"><ele>152.0</ele><time>2026-03-28T10:31:17Z</time></trkpt><trkpt lat="44.73922971680395" lon="8.337568810363852"><ele>152.0</ele><time>2026-03-28T10:31:22Z</time></trkpt><trkpt lat="44.739298806615025" lon="8.337600279593794"><ele>152.0</ele><time>2026-03-28T10:31:28Z</time></trkpt><trkpt lat="44.73936078986085" lon="8.337627202089125"><ele>152.0</ele><time>2026-03-28T10:31:33Z</time></trkpt><trkpt lat="44.73942180096724" lon="8.337654157290121"><ele>152.0</ele><time>2026-03-28T10:31:38Z</time></trkpt><trkpt lat="44.73949032153016" lon="8.337678233611861"><ele>151.42857142857142</ele><time>2026-03-28T10:31:45Z</time></trkpt><trkpt lat="44.73956344793071" lon="8.337711578494815"><ele>150.85714285714286</ele><time>2026-03-28T10:31:51Z</time></trkpt><trkpt lat="44.73963330113267" lon="8.33774591202101"><ele>150.28571428571428</ele><time>2026-03-28T10:31:57Z</time></trkpt><trkpt lat="44.73969780909812" lon="8.337772853775144"><ele>149.71428571428572</ele><time>2026-03-28T10:32:05.999Z</time></trkpt><trkpt lat="44.73975735598108" lon="8.337815760835776"><ele>149.14285714285714</ele><time>2026-03-28T10:32:10.999Z</time></trkpt><trkpt lat="44.73980479067318" lon="8.337883794905416"><ele>148.57142857142858</ele><time>2026-03-28T10:32:16.999Z</time></trkpt><trkpt lat="44.73985348652908" lon="8.337947480160894"><ele>148.0</ele><time>2026-03-28T10:32:23.999Z</time></trkpt><trkpt lat="44.739915479306525" lon="8.337992008701232"><ele>148.0</ele><time>2026-03-28T10:32:28.999Z</time></trkpt><trkpt lat="44.73997595279609" lon="8.338035687101378"><ele>148.0</ele><time>2026-03-28T10:32:33.999Z</time></trkpt><trkpt lat="44.740034708975635" lon="8.338073637781255"><ele>148.0</ele><time>2026-03-28T10:32:37.999Z</time></trkpt><trkpt lat="44.74009231989347" lon="8.338113061473502"><ele>148.0</ele><time>2026-03-28T10:32:42.999Z</time></trkpt><trkpt lat="44.7401507401996" lon="8.338150777829219"><ele>148.0</ele><time>2026-03-28T10:32:47.999Z</time></trkpt><trkpt lat="44.740219233851626" lon="8.338194036040163"><ele>148.0</ele><time>2026-03-28T10:32:54Z</time></trkpt><trkpt lat="44.74027692241647" lon="8.338232638400417"><ele>148.0</ele><time>2026-03-28T10:33:00Z</time></trkpt><trkpt lat="44.740337043812396" lon="8.338272292463111"><ele>148.0</ele><time>2026-03-28T10:33:08Z</time></trkpt><trkpt lat="44.74039337396599" lon="8.338320897718784"><ele>148.0</ele><time>2026-03-28T10:33:23Z</time></trkpt><trkpt lat="44.74045247084984" lon="8.338367387586567"><ele>148.0</ele><time>2026-03-28T10:33:29Z</time></trkpt><trkpt lat="44.740526445023534" lon="8.338415787021466"><ele>148.0</ele><time>2026-03-28T10:33:35Z</time></trkpt><trkpt lat="44.7405903637168" lon="8.338464832237287"><ele>148.0</ele><time>2026-03-28T10:33:41Z</time></trkpt><trkpt lat="44.74064877194023" lon="8.338500459510362"><ele>148.0</ele><time>2026-03-28T10:33:46Z</time></trkpt><trkpt lat="44.74071020885903" lon="8.338525191271762"><ele>148.0</ele><time>2026-03-28T10:33:51Z</time></trkpt><trkpt lat="44.74077314580719" lon="8.338574398014446"><ele>148.0</ele><time>2026-03-28T10:33:58Z</time></trkpt><trkpt lat="44.740832892208836" lon="8.338630608255206"><ele>148.0</ele><time>2026-03-28T10:34:05Z</time></trkpt><trkpt lat="44.74088622346036" lon="8.338690613517967"><ele>148.0</ele><time>2026-03-28T10:34:09.999Z</time></trkpt><trkpt lat="44.74094304153174" lon="8.338742044103192"><ele>148.0</ele><time>2026-03-28T10:34:14.999Z</time></trkpt><trkpt lat="44.740992574311" lon="8.338800012205157"><ele>148.0</ele><time>2026-03-28T10:34:19.999Z</time></trkpt><trkpt lat="44.74105062306678" lon="8.338861883516511"><ele>148.0</ele><time>2026-03-28T10:34:25.999Z</time></trkpt><trkpt lat="44.7411035538882" lon="8.338921889886379"><ele>148.0</ele><time>2026-03-28T10:34:31.999Z</time></trkpt><trkpt lat="44.74115269150895" lon="8.338977876077184"><ele>147.85714285714286</ele><time>2026-03-28T10:34:36.999Z</time></trkpt><trkpt lat="44.7412072543453" lon="8.339029659566535"><ele>147.71428571428572</ele><time>2026-03-28T10:34:41.999Z</time></trkpt><trkpt lat="44.7412619205405" lon="8.339080729695342"><ele>147.57142857142856</ele><time>2026-03-28T10:34:46.999Z</time></trkpt><trkpt lat="44.7413153130848" lon="8.339138105196977"><ele>147.42857142857144</ele><time>2026-03-28T10:34:52.999Z</time></trkpt><trkpt lat="44.74137041582647" lon="8.339194048302797"><ele>147.28571428571428</ele><time>2026-03-28T10:34:58Z</time></trkpt><trkpt lat="44.74142239738902" lon="8.339244340188339"><ele>147.14285714285714</ele><time>2026-03-28T10:35:03Z</time></trkpt><trkpt lat="44.74148068684347" lon="8.339304391440166"><ele>147.0</ele><time>2026-03-28T10:35:08Z</time></trkpt><trkpt lat="44.74154008841428" lon="8.339358587944083"><ele>147.0</ele><time>2026-03-28T10:35:14Z</time></trkpt><trkpt lat="44.741594652196426" lon="8.339412578707924"><ele>147.0</ele><time>2026-03-28T10:35:19Z</time></trkpt><trkpt lat="44.74164693704366" lon="8.339462315204884"><ele>147.0</ele><time>2026-03-28T10:35:24Z</time></trkpt><trkpt lat="44.741700689933616" lon="8.339520554436609"><ele>147.0</ele><time>2026-03-28T10:35:29Z</time></trkpt><trkpt lat="44.74175535503059" lon="8.339571395722032"><ele>147.0</ele><time>2026-03-28T10:35:34Z</time></trkpt><trkpt lat="44.74181258725754" lon="8.339632467664046"><ele>147.0</ele><time>2026-03-28T10:35:40Z</time></trkpt><trkpt lat="44.74186952205646" lon="8.339693117490532"><ele>147.0</ele><time>2026-03-28T10:35:46Z</time></trkpt><trkpt lat="44.741924213894706" lon="8.339765276963531"><ele>146.85714285714286</ele><time>2026-03-28T10:35:52Z</time></trkpt><trkpt lat="44.74198239493951" lon="8.33981349013026"><ele>146.71428571428572</ele><time>2026-03-28T10:35:57Z</time></trkpt><trkpt lat="44.7420478690088" lon="8.339873953484322"><ele>146.57142857142856</ele><time>2026-03-28T10:36:03Z</time></trkpt><trkpt lat="44.74211010074179" lon="8.3399346968907"><ele>146.42857142857144</ele><time>2026-03-28T10:36:09Z</time></trkpt><trkpt lat="44.74216472324573" lon="8.33998275063252"><ele>146.28571428571428</ele><time>2026-03-28T10:36:13.999Z</time></trkpt><trkpt lat="44.74221884365892" lon="8.340031265873824"><ele>146.14285714285714</ele><time>2026-03-28T10:36:18.999Z</time></trkpt><trkpt lat="44.74227749276261" lon="8.340086587862004"><ele>146.0</ele><time>2026-03-28T10:36:24.999Z</time></trkpt><trkpt lat="44.74233525616671" lon="8.340143238596617"><ele>146.0</ele><time>2026-03-28T10:36:30.999Z</time></trkpt><trkpt lat="44.742390301034405" lon="8.34020026108185"><ele>146.0</ele><time>2026-03-28T10:36:36.999Z</time></trkpt><trkpt lat="44.74245185871036" lon="8.34024521112926"><ele>146.0</ele><time>2026-03-28T10:37:27Z</time></trkpt><trkpt lat="44.74251794823857" lon="8.340281000758884"><ele>146.0</ele><time>2026-03-28T10:37:36Z</time></trkpt><trkpt lat="44.74256883569795" lon="8.34033390200446"><ele>146.0</ele><time>2026-03-28T10:37:44Z</time></trkpt><trkpt lat="44.742624163600716" lon="8.340396548897854"><ele>146.0</ele><time>2026-03-28T10:37:53Z</time></trkpt><trkpt lat="44.7426779771498" lon="8.340446921385047"><ele>146.0</ele><time>2026-03-28T10:37:59Z</time></trkpt><trkpt lat="44.742735233016155" lon="8.34049818780237"><ele>146.0</ele><time>2026-03-28T10:38:05Z</time></trkpt><trkpt lat="44.74278967989914" lon="8.340545802998406"><ele>146.0</ele><time>2026-03-28T10:38:10Z</time></trkpt><trkpt lat="44.742844728969914" lon="8.340597824704309"><ele>146.0</ele><time>2026-03-28T10:38:16Z</time></trkpt><trkpt lat="44.74290274185006" lon="8.340656887643133"><ele>146.0</ele><time>2026-03-28T10:38:21.999Z</time></trkpt><trkpt lat="44.74295860110913" lon="8.340701936038782"><ele>146.0</ele><time>2026-03-28T10:38:26.999Z</time></trkpt><trkpt lat="44.74301310062011" lon="8.34075838293131"><ele>146.0</ele><time>2026-03-28T10:38:32.999Z</time></trkpt><trkpt lat="44.74307226525227" lon="8.340810681200827"><ele>146.0</ele><time>2026-03-28T10:38:38.999Z</time></trkpt><trkpt lat="44.743125571813806" lon="8.34086371345067"><ele>146.0</ele><time>2026-03-28T10:38:44.999Z</time></trkpt><trkpt lat="44.7431785838307" lon="8.340918575151587"><ele>146.0</ele><time>2026-03-28T10:38:50.999Z</time></trkpt><trkpt lat="44.74323164406848" lon="8.340971710088377"><ele>146.0</ele><time>2026-03-28T10:38:55.999Z</time></trkpt><trkpt lat="44.74328785459871" lon="8.3410334056064"><ele>146.0</ele><time>2026-03-28T10:39:02.999Z</time></trkpt><trkpt lat="44.74334096862303" lon="8.341089948015458"><ele>146.0</ele><time>2026-03-28T10:39:14Z</time></trkpt><trkpt lat="44.743399591059514" lon="8.341128999408149"><ele>146.0</ele><time>2026-03-28T10:39:21Z</time></trkpt><trkpt lat="44.74345206934074" lon="8.341182079406343"><ele>146.0</ele><time>2026-03-28T10:39:26Z</time></trkpt><trkpt lat="44.743514230722454" lon="8.341226281365262"><ele>146.0</ele><time>2026-03-28T10:39:32Z</time></trkpt><trkpt lat="44.74357265593781" lon="8.341280859945636"><ele>146.0</ele><time>2026-03-28T10:39:37Z</time></trkpt><trkpt lat="44.74362884064276" lon="8.34133439003613"><ele>146.0</ele><time>2026-03-28T10:39:42Z</time></trkpt><trkpt lat="44.74368423728496" lon="8.341389430576681"><ele>146.0</ele><time>2026-03-28T10:39:48Z</time></trkpt><trkpt lat="44.743743412628895" lon="8.341432546881297"><ele>146.0</ele><time>2026-03-28T10:39:53Z</time></trkpt><trkpt lat="44.74379838742402" lon="8.341492809972822"><ele>146.0</ele><time>2026-03-28T10:39:58Z</time></trkpt><trkpt lat="44.74385983606109" lon="8.341547762954594"><ele>146.0</ele><time>2026-03-28T10:40:03.999Z</time></trkpt><trkpt lat="44.74393395870528" lon="8.341581204047737"><ele>146.0</ele><time>2026-03-28T10:40:09.999Z</time></trkpt><trkpt lat="44.744004659481526" lon="8.34159921778694"><ele>146.0</ele><time>2026-03-28T10:40:14.999Z</time></trkpt><trkpt lat="44.74406374186343" lon="8.341552414686166"><ele>146.0</ele><time>2026-03-28T10:40:20.999Z</time></trkpt><trkpt lat="44.74411666782962" lon="8.341494331571521"><ele>146.0</ele><time>2026-03-28T10:40:25.999Z</time></trkpt><trkpt lat="44.74417147418652" lon="8.34142036380836"><ele>146.0</ele><time>2026-03-28T10:40:31.999Z</time></trkpt><trkpt lat="44.744224769933695" lon="8.341348567419285"><ele>146.0</ele><time>2026-03-28T10:40:37.999Z</time></trkpt><trkpt lat="44.744276460678364" lon="8.341268691931505"><ele>146.0</ele><time>2026-03-28T10:40:43.999Z</time></trkpt><trkpt lat="44.74432689529417" lon="8.34120411489799"><ele>146.14285714285714</ele><time>2026-03-28T10:40:49.999Z</time></trkpt><trkpt lat="44.744381353841234" lon="8.341134248501577"><ele>146.28571428571428</ele><time>2026-03-28T10:40:55.999Z</time></trkpt><trkpt lat="44.74443645753868" lon="8.341061592368671"><ele>146.42857142857144</ele><time>2026-03-28T10:41:01.999Z</time></trkpt><trkpt lat="44.74448745310739" lon="8.340987828849109"><ele>146.57142857142856</ele><time>2026-03-28T10:41:07.999Z</time></trkpt><trkpt lat="44.74453864759362" lon="8.340914535588267"><ele>146.71428571428572</ele><time>2026-03-28T10:41:14Z</time></trkpt><trkpt lat="44.74458885728627" lon="8.340845507406991"><ele>146.85714285714286</ele><time>2026-03-28T10:41:20Z</time></trkpt><trkpt lat="44.74463261888222" lon="8.340781640121499"><ele>147.0</ele><time>2026-03-28T10:41:25Z</time></trkpt><trkpt lat="44.74468008080793" lon="8.340711004489242"><ele>147.0</ele><time>2026-03-28T10:41:31Z</time></trkpt><trkpt lat="44.74473395882141" lon="8.340643375018061"><ele>147.0</ele><time>2026-03-28T10:41:37Z</time></trkpt><trkpt lat="44.74478462507705" lon="8.340560308538437"><ele>147.0</ele><time>2026-03-28T10:41:43Z</time></trkpt><trkpt lat="44.74483345023202" lon="8.340492101086506"><ele>147.0</ele><time>2026-03-28T10:41:49Z</time></trkpt><trkpt lat="44.744885814156476" lon="8.34042146127355"><ele>147.0</ele><time>2026-03-28T10:41:55Z</time></trkpt><trkpt lat="44.74493474081462" lon="8.340345978873202"><ele>147.0</ele><time>2026-03-28T10:42:01Z</time></trkpt><trkpt lat="44.74498798380608" lon="8.34028092742573"><ele>147.0</ele><time>2026-03-28T10:42:07Z</time></trkpt><trkpt lat="44.74503269878905" lon="8.340212204166424"><ele>147.0</ele><time>2026-03-28T10:42:27.999Z</time></trkpt><trkpt lat="44.74507711704583" lon="8.340148602765417"><ele>147.0</ele><time>2026-03-28T10:42:32.999Z</time></trkpt><trkpt lat="44.74512106489339" lon="8.34007826211351"><ele>147.0</ele><time>2026-03-28T10:42:37.999Z</time></trkpt><trkpt lat="44.745166492935454" lon="8.340016054240097"><ele>147.0</ele><time>2026-03-28T10:42:42.999Z</time></trkpt><trkpt lat="44.745216594270765" lon="8.33994451853754"><ele>147.0</ele><time>2026-03-28T10:42:48.999Z</time></trkpt><trkpt lat="44.745268838313216" lon="8.339876682943261"><ele>147.0</ele><time>2026-03-28T10:42:54.999Z</time></trkpt><trkpt lat="44.7453169945439" lon="8.339800887631327"><ele>147.0</ele><time>2026-03-28T10:43:00.999Z</time></trkpt><trkpt lat="44.74536572981558" lon="8.33973273728305"><ele>146.57142857142858</ele><time>2026-03-28T10:43:06.999Z</time></trkpt><trkpt lat="44.74541041248414" lon="8.339668428604334"><ele>146.14285714285714</ele><time>2026-03-28T10:43:11.999Z</time></trkpt><trkpt lat="44.74546259826835" lon="8.339600113574278"><ele>145.71428571428572</ele><time>2026-03-28T10:43:18Z</time></trkpt><trkpt lat="44.7455094442634" lon="8.33953295553272"><ele>145.28571428571428</ele><time>2026-03-28T10:43:30Z</time></trkpt><trkpt lat="44.74555373263442" lon="8.339468116419916"><ele>144.85714285714286</ele><time>2026-03-28T10:43:35Z</time></trkpt><trkpt lat="44.745604973885186" lon="8.339402296722506"><ele>144.42857142857144</ele><time>2026-03-28T10:43:41Z</time></trkpt><trkpt lat="44.74565097628532" lon="8.339332665452352"><ele>144.0</ele><time>2026-03-28T10:43:47Z</time></trkpt><trkpt lat="44.74569215604773" lon="8.339265460150749"><ele>144.00000000000003</ele><time>2026-03-28T10:43:52Z</time></trkpt><trkpt lat="44.74573928719658" lon="8.339193294969817"><ele>144.0</ele><time>2026-03-28T10:43:58Z</time></trkpt><trkpt lat="44.74578389682725" lon="8.339118739228814"><ele>144.0</ele><time>2026-03-28T10:44:04Z</time></trkpt><trkpt lat="44.74583360574924" lon="8.339054593297488"><ele>144.0</ele><time>2026-03-28T10:44:10Z</time></trkpt><trkpt lat="44.74588259228163" lon="8.338995954649443"><ele>144.0</ele><time>2026-03-28T10:44:16Z</time></trkpt><trkpt lat="44.745934668785125" lon="8.338915075913034"><ele>144.00000000000003</ele><time>2026-03-28T10:44:23Z</time></trkpt><trkpt lat="44.745994165777205" lon="8.338845703745381"><ele>144.0</ele><time>2026-03-28T10:44:30Z</time></trkpt><trkpt lat="44.74604459603935" lon="8.338776066471572"><ele>144.00000000000003</ele><time>2026-03-28T10:44:35.999Z</time></trkpt><trkpt lat="44.74609458138472" lon="8.33871781324465"><ele>144.0</ele><time>2026-03-28T10:44:40.999Z</time></trkpt><trkpt lat="44.74614537112351" lon="8.338662593877203"><ele>144.0</ele><time>2026-03-28T10:44:45.999Z</time></trkpt><trkpt lat="44.74619546987702" lon="8.338604310682877"><ele>144.0</ele><time>2026-03-28T10:44:51.999Z</time></trkpt><trkpt lat="44.74626406870544" lon="8.338592684940307"><ele>144.0</ele><time>2026-03-28T10:44:57.999Z</time></trkpt><trkpt lat="44.74632734083753" lon="8.33862449885752"><ele>144.00000000000003</ele><time>2026-03-28T10:45:03.999Z</time></trkpt><trkpt lat="44.746381314621004" lon="8.338679411508059"><ele>144.0</ele><time>2026-03-28T10:45:08.999Z</time></trkpt><trkpt lat="44.746438914655805" lon="8.338743395848947"><ele>144.00000000000003</ele><time>2026-03-28T10:45:14.999Z</time></trkpt><trkpt lat="44.746492773717016" lon="8.338814061838372"><ele>144.0</ele><time>2026-03-28T10:45:20.999Z</time></trkpt><trkpt lat="44.746546846682406" lon="8.338884306944884"><ele>144.0</ele><time>2026-03-28T10:45:27Z</time></trkpt><trkpt lat="44.74659454070006" lon="8.338947327810775"><ele>144.0</ele><time>2026-03-28T10:45:33Z</time></trkpt><trkpt lat="44.746645651553294" lon="8.33901835939087"><ele>144.0</ele><time>2026-03-28T10:45:39Z</time></trkpt><trkpt lat="44.74669284036667" lon="8.339078403361937"><ele>144.00000000000003</ele><time>2026-03-28T10:45:45Z</time></trkpt><trkpt lat="44.74674416350303" lon="8.339145565559463"><ele>144.0</ele><time>2026-03-28T10:45:51Z</time></trkpt><trkpt lat="44.74679932238893" lon="8.339215055358626"><ele>144.00000000000003</ele><time>2026-03-28T10:45:57Z</time></trkpt><trkpt lat="44.746846333710536" lon="8.339281689121353"><ele>144.0</ele><time>2026-03-28T10:46:03Z</time></trkpt><trkpt lat="44.74689427501699" lon="8.339340678218592"><ele>144.0</ele><time>2026-03-28T10:46:08Z</time></trkpt><trkpt lat="44.746947842185534" lon="8.339407517760032"><ele>144.0</ele><time>2026-03-28T10:46:14Z</time></trkpt><trkpt lat="44.74699825488715" lon="8.33947313206236"><ele>144.0</ele><time>2026-03-28T10:46:20Z</time></trkpt><trkpt lat="44.74705609911187" lon="8.339541040838514"><ele>144.00000000000003</ele><time>2026-03-28T10:46:26Z</time></trkpt><trkpt lat="44.747113259967506" lon="8.339603077609192"><ele>144.0</ele><time>2026-03-28T10:46:32Z</time></trkpt><trkpt lat="44.74717091596472" lon="8.339671593047937"><ele>143.85714285714286</ele><time>2026-03-28T10:46:38Z</time></trkpt><trkpt lat="44.747225544919765" lon="8.339732414763626"><ele>143.71428571428572</ele><time>2026-03-28T10:46:44Z</time></trkpt><trkpt lat="44.74728751871024" lon="8.339792332633792"><ele>143.57142857142856</ele><time>2026-03-28T10:46:49.999Z</time></trkpt><trkpt lat="44.74733665534669" lon="8.339858212625465"><ele>143.42857142857144</ele><time>2026-03-28T10:46:55.999Z</time></trkpt><trkpt lat="44.74739748686387" lon="8.339911208489339"><ele>143.28571428571428</ele><time>2026-03-28T10:47:01.999Z</time></trkpt><trkpt lat="44.74745491619902" lon="8.339974277061502"><ele>143.14285714285714</ele><time>2026-03-28T10:47:07.999Z</time></trkpt><trkpt lat="44.747520436757206" lon="8.340025595904722"><ele>143.0</ele><time>2026-03-28T10:47:14.999Z</time></trkpt><trkpt lat="44.747574402641675" lon="8.340090207455015"><ele>142.99999999999997</ele><time>2026-03-28T10:47:20.999Z</time></trkpt><trkpt lat="44.747561532407325" lon="8.340186817034242"><ele>143.0</ele><time>2026-03-28T10:47:27.999Z</time></trkpt><trkpt lat="44.74752216346385" lon="8.340264438410493"><ele>143.0</ele><time>2026-03-28T10:47:35Z</time></trkpt><trkpt lat="44.7474742192275" lon="8.340338303579"><ele>143.0</ele><time>2026-03-28T10:47:41Z</time></trkpt><trkpt lat="44.74743590170187" lon="8.340426247443508"><ele>143.0</ele><time>2026-03-28T10:47:47Z</time></trkpt><trkpt lat="44.747437906351806" lon="8.340518938028435"><ele>142.99999999999997</ele><time>2026-03-28T10:47:52Z</time></trkpt><trkpt lat="44.74747846743024" lon="8.340591067634731"><ele>143.0</ele><time>2026-03-28T10:48:00Z</time></trkpt><trkpt lat="44.74753507907874" lon="8.340643682787324"><ele>143.14285714285714</ele><time>2026-03-28T10:48:06Z</time></trkpt><trkpt lat="44.74758864443323" lon="8.340697253346482"><ele>143.28571428571428</ele><time>2026-03-28T10:48:11Z</time></trkpt><trkpt lat="44.747641727141826" lon="8.340749092782657"><ele>143.42857142857144</ele><time>2026-03-28T10:48:16Z</time></trkpt><trkpt lat="44.747698931991856" lon="8.340806292805881"><ele>143.57142857142856</ele><time>2026-03-28T10:48:22Z</time></trkpt><trkpt lat="44.747750893366195" lon="8.340857941888885"><ele>143.71428571428572</ele><time>2026-03-28T10:48:27Z</time></trkpt><trkpt lat="44.74780735216314" lon="8.340921669617288"><ele>143.85714285714286</ele><time>2026-03-28T10:48:32Z</time></trkpt><trkpt lat="44.747868947531565" lon="8.340980029500585"><ele>144.0</ele><time>2026-03-28T10:48:38Z</time></trkpt><trkpt lat="44.74792282701549" lon="8.341036998757875"><ele>144.00000000000003</ele><time>2026-03-28T10:48:44Z</time></trkpt><trkpt lat="44.74797614386036" lon="8.34108610601221"><ele>144.0</ele><time>2026-03-28T10:48:48Z</time></trkpt><trkpt lat="44.74803494821614" lon="8.341141986847855"><ele>144.0</ele><time>2026-03-28T10:48:53.999Z</time></trkpt><trkpt lat="44.74809724291386" lon="8.341198244486744"><ele>144.0</ele><time>2026-03-28T10:48:59.999Z</time></trkpt><trkpt lat="44.74815307686811" lon="8.341250176172261"><ele>144.0</ele><time>2026-03-28T10:49:05.999Z</time></trkpt><trkpt lat="44.748203827190444" lon="8.341306111778344"><ele>144.00000000000003</ele><time>2026-03-28T10:49:10.999Z</time></trkpt><trkpt lat="44.74826497012455" lon="8.341356367573884"><ele>144.0</ele><time>2026-03-28T10:49:16.999Z</time></trkpt><trkpt lat="44.74832985356979" lon="8.341408725458423"><ele>144.00000000000003</ele><time>2026-03-28T10:49:23.999Z</time></trkpt><trkpt lat="44.74839085370658" lon="8.34146257972636"><ele>144.0</ele><time>2026-03-28T10:49:29.999Z</time></trkpt><trkpt lat="44.74845634832607" lon="8.341518341787538"><ele>144.0</ele><time>2026-03-28T10:49:36Z</time></trkpt><trkpt lat="44.748511327452775" lon="8.341564582821244"><ele>144.0</ele><time>2026-03-28T10:49:41Z</time></trkpt><trkpt lat="44.7485711783221" lon="8.341612992340538"><ele>144.0</ele><time>2026-03-28T10:49:47Z</time></trkpt><trkpt lat="44.748633096280145" lon="8.341651486886315"><ele>144.00000000000003</ele><time>2026-03-28T10:49:53Z</time></trkpt><trkpt lat="44.74869482580738" lon="8.341690988184865"><ele>144.0</ele><time>2026-03-28T10:49:59Z</time></trkpt><trkpt lat="44.74875431149354" lon="8.34174679615196"><ele>144.00000000000003</ele><time>2026-03-28T10:50:04Z</time></trkpt><trkpt lat="44.74881647663918" lon="8.341782939655387"><ele>144.0</ele><time>2026-03-28T10:50:10Z</time></trkpt><trkpt lat="44.748883772646785" lon="8.34183619227184"><ele>144.0</ele><time>2026-03-28T10:50:17Z</time></trkpt><trkpt lat="44.74895200489107" lon="8.341886688964157"><ele>144.0</ele><time>2026-03-28T10:50:24Z</time></trkpt><trkpt lat="44.749010468886965" lon="8.341940545834653"><ele>144.0</ele><time>2026-03-28T10:50:30Z</time></trkpt><trkpt lat="44.7490722884131" lon="8.341988004027556"><ele>144.00000000000003</ele><time>2026-03-28T10:50:36Z</time></trkpt><trkpt lat="44.749135988372444" lon="8.342031716909274"><ele>144.0</ele><time>2026-03-28T10:50:44Z</time></trkpt><trkpt lat="44.74919845030585" lon="8.342078784662194"><ele>144.00000000000003</ele><time>2026-03-28T10:50:50Z</time></trkpt><trkpt lat="44.749266835822255" lon="8.342120102248183"><ele>144.0</ele><time>2026-03-28T10:50:56Z</time></trkpt><trkpt lat="44.74933294131431" lon="8.34217456598905"><ele>144.0</ele><time>2026-03-28T10:51:02Z</time></trkpt><trkpt lat="44.74940300979847" lon="8.342217259075912"><ele>144.0</ele><time>2026-03-28T10:51:07.999Z</time></trkpt><trkpt lat="44.74946851811425" lon="8.342261133140743"><ele>144.0</ele><time>2026-03-28T10:51:13.999Z</time></trkpt><trkpt lat="44.74952624859733" lon="8.342296880048607"><ele>144.00000000000003</ele><time>2026-03-28T10:51:19.999Z</time></trkpt><trkpt lat="44.74958701694384" lon="8.342332084502777"><ele>144.0</ele><time>2026-03-28T10:51:26.999Z</time></trkpt><trkpt lat="44.74965565481892" lon="8.34237021129812"><ele>144.00000000000003</ele><time>2026-03-28T10:51:32.999Z</time></trkpt><trkpt lat="44.74971613169493" lon="8.34241989495501"><ele>144.0</ele><time>2026-03-28T10:51:38.999Z</time></trkpt><trkpt lat="44.749775563687486" lon="8.342470167010037"><ele>144.0</ele><time>2026-03-28T10:51:45Z</time></trkpt><trkpt lat="44.749838257815966" lon="8.342508106943809"><ele>144.0</ele><time>2026-03-28T10:51:52Z</time></trkpt><trkpt lat="44.74990835157801" lon="8.342568865901557"><ele>144.0</ele><time>2026-03-28T10:51:57Z</time></trkpt><trkpt lat="44.7499663177636" lon="8.342607612269022"><ele>144.00000000000003</ele><time>2026-03-28T10:52:03Z</time></trkpt><trkpt lat="44.750021403391415" lon="8.34265954424549"><ele>144.0</ele><time>2026-03-28T10:52:09Z</time></trkpt><trkpt lat="44.750086046662354" lon="8.342696357899452"><ele>144.00000000000003</ele><time>2026-03-28T10:52:16Z</time></trkpt><trkpt lat="44.75014476593399" lon="8.342737411901862"><ele>144.0</ele><time>2026-03-28T10:52:23Z</time></trkpt><trkpt lat="44.75020085268098" lon="8.342780500654161"><ele>144.0</ele><time>2026-03-28T10:52:28Z</time></trkpt><trkpt lat="44.75026183951398" lon="8.34283406212287"><ele>144.0</ele><time>2026-03-28T10:52:33Z</time></trkpt><trkpt lat="44.75031867230459" lon="8.342876286496727"><ele>144.0</ele><time>2026-03-28T10:52:37Z</time></trkpt><trkpt lat="44.75039115894329" lon="8.342927666420763"><ele>144.00000000000003</ele><time>2026-03-28T10:52:42Z</time></trkpt><trkpt lat="44.750451194686434" lon="8.342964918955065"><ele>144.0</ele><time>2026-03-28T10:52:45.999Z</time></trkpt><trkpt lat="44.75050801052977" lon="8.343012257443366"><ele>143.71428571428572</ele><time>2026-03-28T10:52:50.999Z</time></trkpt><trkpt lat="44.75057245019383" lon="8.3430607939318"><ele>143.42857142857144</ele><time>2026-03-28T10:52:56.999Z</time></trkpt><trkpt lat="44.75062452119577" lon="8.343110758274499"><ele>143.14285714285714</ele><time>2026-03-28T10:53:01.999Z</time></trkpt><trkpt lat="44.750687911574005" lon="8.343161519636343"><ele>142.85714285714286</ele><time>2026-03-28T10:53:07.999Z</time></trkpt><trkpt lat="44.750750606144" lon="8.343206718058964"><ele>142.57142857142856</ele><time>2026-03-28T10:53:13.999Z</time></trkpt><trkpt lat="44.75080714303416" lon="8.34324884843259"><ele>142.28571428571428</ele><time>2026-03-28T10:53:19.999Z</time></trkpt><trkpt lat="44.750859107642405" lon="8.343298985110644"><ele>142.0</ele><time>2026-03-28T10:53:29.999Z</time></trkpt><trkpt lat="44.75092105085356" lon="8.343327813262828"><ele>142.0</ele><time>2026-03-28T10:53:44.999Z</time></trkpt><trkpt lat="44.75098535744428" lon="8.3433698780576"><ele>142.0</ele><time>2026-03-28T10:53:50Z</time></trkpt><trkpt lat="44.75105592421904" lon="8.343415252603982"><ele>142.0</ele><time>2026-03-28T10:53:56Z</time></trkpt><trkpt lat="44.751113574792996" lon="8.34346395713477"><ele>142.0</ele><time>2026-03-28T10:54:01Z</time></trkpt><trkpt lat="44.75117574351217" lon="8.34350957580753"><ele>142.0</ele><time>2026-03-28T10:54:06Z</time></trkpt><trkpt lat="44.75124500202396" lon="8.34355704316273"><ele>142.0</ele><time>2026-03-28T10:54:11Z</time></trkpt><trkpt lat="44.75130374017196" lon="8.343600894523727"><ele>142.0</ele><time>2026-03-28T10:54:16Z</time></trkpt><trkpt lat="44.7513611332726" lon="8.343643860277407"><ele>142.0</ele><time>2026-03-28T10:54:21Z</time></trkpt><trkpt lat="44.751417851791594" lon="8.343685499152645"><ele>142.0</ele><time>2026-03-28T10:54:26Z</time></trkpt><trkpt lat="44.751479418661866" lon="8.343730299753792"><ele>142.0</ele><time>2026-03-28T10:54:32Z</time></trkpt><trkpt lat="44.75153936273432" lon="8.343777486196629"><ele>142.0</ele><time>2026-03-28T10:54:37Z</time></trkpt><trkpt lat="44.75159788658562" lon="8.343817582621488"><ele>142.0</ele><time>2026-03-28T10:54:42Z</time></trkpt><trkpt lat="44.75165633071872" lon="8.343861062798856"><ele>142.0</ele><time>2026-03-28T10:54:47Z</time></trkpt><trkpt lat="44.75172127108609" lon="8.343907360835955"><ele>142.0</ele><time>2026-03-28T10:54:53Z</time></trkpt><trkpt lat="44.75178614322931" lon="8.343953766776046"><ele>142.0</ele><time>2026-03-28T10:54:59Z</time></trkpt><trkpt lat="44.7518521066591" lon="8.34400018326011"><ele>142.0</ele><time>2026-03-28T10:55:05Z</time></trkpt><trkpt lat="44.751913999281975" lon="8.344047532846623"><ele>142.0</ele><time>2026-03-28T10:55:11Z</time></trkpt><trkpt lat="44.751980403827204" lon="8.344087523799544"><ele>142.0</ele><time>2026-03-28T10:55:16.999Z</time></trkpt><trkpt lat="44.75203800379316" lon="8.344129812643045"><ele>142.0</ele><time>2026-03-28T10:55:21.999Z</time></trkpt><trkpt lat="44.75209464071499" lon="8.344178554804735"><ele>142.0</ele><time>2026-03-28T10:55:26.999Z</time></trkpt><trkpt lat="44.75215530590601" lon="8.34421054136911"><ele>142.0</ele><time>2026-03-28T10:55:31.999Z</time></trkpt><trkpt lat="44.75222178228414" lon="8.344260090619018"><ele>141.85714285714286</ele><time>2026-03-28T10:55:36.999Z</time></trkpt><trkpt lat="44.75228952114056" lon="8.344307439493505"><ele>141.7142857142857</ele><time>2026-03-28T10:55:42.999Z</time></trkpt><trkpt lat="44.75234685983126" lon="8.344345703681947"><ele>141.57142857142856</ele><time>2026-03-28T10:55:47.999Z</time></trkpt><trkpt lat="44.752406770591634" lon="8.344394233846286"><ele>141.42857142857142</ele><time>2026-03-28T10:55:54Z</time></trkpt><trkpt lat="44.7524768527119" lon="8.344444161849404"><ele>141.28571428571428</ele><time>2026-03-28T10:56:00Z</time></trkpt><trkpt lat="44.75253942330479" lon="8.344488615403057"><ele>141.14285714285714</ele><time>2026-03-28T10:56:06Z</time></trkpt><trkpt lat="44.75259768588859" lon="8.344546217129169"><ele>141.0</ele><time>2026-03-28T10:56:12Z</time></trkpt><trkpt lat="44.752661182695476" lon="8.344588175792772"><ele>141.14285714285714</ele><time>2026-03-28T10:56:40Z</time></trkpt><trkpt lat="44.75272002483771" lon="8.344632396360101"><ele>141.28571428571428</ele><time>2026-03-28T10:56:45Z</time></trkpt><trkpt lat="44.752777117876484" lon="8.344684158060954"><ele>141.42857142857142</ele><time>2026-03-28T10:56:51Z</time></trkpt><trkpt lat="44.752833399934836" lon="8.344731665462984"><ele>141.57142857142856</ele><time>2026-03-28T10:56:57Z</time></trkpt><trkpt lat="44.75289119780988" lon="8.34477331896948"><ele>141.7142857142857</ele><time>2026-03-28T10:57:03Z</time></trkpt><trkpt lat="44.75295374677719" lon="8.34481728243565"><ele>141.85714285714286</ele><time>2026-03-28T10:57:09Z</time></trkpt><trkpt lat="44.75301784755661" lon="8.34486514449119"><ele>142.0</ele><time>2026-03-28T10:57:14.999Z</time></trkpt><trkpt lat="44.753079555527854" lon="8.344912070537212"><ele>142.0</ele><time>2026-03-28T10:57:20.999Z</time></trkpt><trkpt lat="44.753139223856294" lon="8.34495667876722"><ele>142.0</ele><time>2026-03-28T10:57:25.999Z</time></trkpt><trkpt lat="44.75320777005545" lon="8.34500485637282"><ele>142.0</ele><time>2026-03-28T10:57:31.999Z</time></trkpt><trkpt lat="44.75326421111502" lon="8.345044893590417"><ele>142.0</ele><time>2026-03-28T10:57:36.999Z</time></trkpt><trkpt lat="44.75332105468113" lon="8.34508523162441"><ele>142.0</ele><time>2026-03-28T10:57:41.999Z</time></trkpt><trkpt lat="44.75338199566139" lon="8.3451322388476"><ele>142.0</ele><time>2026-03-28T10:57:47.999Z</time></trkpt><trkpt lat="44.75343961062644" lon="8.345171665814558"><ele>142.0</ele><time>2026-03-28T10:57:52.999Z</time></trkpt><trkpt lat="44.75349648900702" lon="8.345221663570975"><ele>142.28571428571428</ele><time>2026-03-28T10:57:57.999Z</time></trkpt><trkpt lat="44.753560923002304" lon="8.345263953517865"><ele>142.57142857142856</ele><time>2026-03-28T10:58:04Z</time></trkpt><trkpt lat="44.75362308279058" lon="8.345307127854934"><ele>142.85714285714286</ele><time>2026-03-28T10:58:09Z</time></trkpt><trkpt lat="44.75368950568998" lon="8.34534985395825"><ele>143.14285714285714</ele><time>2026-03-28T10:58:15Z</time></trkpt><trkpt lat="44.75375781317983" lon="8.345396727293178"><ele>143.42857142857144</ele><time>2026-03-28T10:58:21Z</time></trkpt><trkpt lat="44.753822732596284" lon="8.345447594307387"><ele>143.71428571428572</ele><time>2026-03-28T10:58:27Z</time></trkpt><trkpt lat="44.75388851229978" lon="8.345491269257849"><ele>144.0</ele><time>2026-03-28T10:58:33Z</time></trkpt><trkpt lat="44.75395178895825" lon="8.345535358827014"><ele>144.14285714285717</ele><time>2026-03-28T10:58:39Z</time></trkpt><trkpt lat="44.75400877139534" lon="8.345583589492609"><ele>144.28571428571428</ele><time>2026-03-28T10:58:45Z</time></trkpt><trkpt lat="44.75407666171723" lon="8.345636037650259"><ele>144.42857142857144</ele><time>2026-03-28T10:58:51Z</time></trkpt><trkpt lat="44.754138380029524" lon="8.345679209287491"><ele>144.57142857142858</ele><time>2026-03-28T10:58:56Z</time></trkpt><trkpt lat="44.754197419758455" lon="8.345719856095362"><ele>144.71428571428572</ele><time>2026-03-28T10:59:01Z</time></trkpt><trkpt lat="44.75426452380635" lon="8.34576598159412"><ele>144.85714285714286</ele><time>2026-03-28T10:59:07Z</time></trkpt><trkpt lat="44.75432257097866" lon="8.345814751693057"><ele>145.0</ele><time>2026-03-28T10:59:13Z</time></trkpt><trkpt lat="44.75438722995724" lon="8.34586451813104"><ele>144.71428571428572</ele><time>2026-03-28T10:59:18.999Z</time></trkpt><trkpt lat="44.75444762771084" lon="8.345901649259995"><ele>144.42857142857144</ele><time>2026-03-28T10:59:24.999Z</time></trkpt><trkpt lat="44.75450399870626" lon="8.345941859837856"><ele>144.14285714285714</ele><time>2026-03-28T10:59:29.999Z</time></trkpt><trkpt lat="44.754567061155576" lon="8.34599102005126"><ele>143.85714285714286</ele><time>2026-03-28T10:59:35.999Z</time></trkpt><trkpt lat="44.75463060483623" lon="8.346035163682906"><ele>143.57142857142856</ele><time>2026-03-28T10:59:41.999Z</time></trkpt><trkpt lat="44.75468886974393" lon="8.346074133395446"><ele>143.28571428571428</ele><time>2026-03-28T10:59:46.999Z</time></trkpt><trkpt lat="44.754753455323616" lon="8.346108577142052"><ele>143.0</ele><time>2026-03-28T10:59:52.999Z</time></trkpt><trkpt lat="44.75481377063915" lon="8.346136764397812"><ele>142.99999999999997</ele><time>2026-03-28T10:59:58.999Z</time></trkpt><trkpt lat="44.75487998498154" lon="8.346172610288074"><ele>143.0</ele><time>2026-03-28T11:00:05Z</time></trkpt><trkpt lat="44.75494331629714" lon="8.346180790067443"><ele>143.0</ele><time>2026-03-28T11:00:10Z</time></trkpt><trkpt lat="44.75501574758349" lon="8.346169578717069"><ele>143.0</ele><time>2026-03-28T11:00:16Z</time></trkpt><trkpt lat="44.75507928558657" lon="8.34615793935665"><ele>143.0</ele><time>2026-03-28T11:00:21Z</time></trkpt><trkpt lat="44.755144570166365" lon="8.346142825387789"><ele>142.99999999999997</ele><time>2026-03-28T11:00:26Z</time></trkpt><trkpt lat="44.755208132300304" lon="8.346131388322847"><ele>143.0</ele><time>2026-03-28T11:00:31Z</time></trkpt><trkpt lat="44.75527239462824" lon="8.346106204558133"><ele>142.57142857142856</ele><time>2026-03-28T11:00:37Z</time></trkpt><trkpt lat="44.755336475158295" lon="8.346078871071732"><ele>142.14285714285714</ele><time>2026-03-28T11:00:43Z</time></trkpt><trkpt lat="44.755412022619375" lon="8.346060137313755"><ele>141.71428571428572</ele><time>2026-03-28T11:00:49Z</time></trkpt><trkpt lat="44.7554798632463" lon="8.346029717653817"><ele>141.28571428571428</ele><time>2026-03-28T11:00:55Z</time></trkpt><trkpt lat="44.75554512433151" lon="8.346003236190862"><ele>140.85714285714286</ele><time>2026-03-28T11:01:01Z</time></trkpt><trkpt lat="44.75560761391761" lon="8.34597636536298"><ele>140.42857142857142</ele><time>2026-03-28T11:01:06Z</time></trkpt><trkpt lat="44.75567541502624" lon="8.34593788385979"><ele>140.0</ele><time>2026-03-28T11:01:12Z</time></trkpt><trkpt lat="44.755734469401936" lon="8.34590494839373"><ele>140.0</ele><time>2026-03-28T11:01:17Z</time></trkpt><trkpt lat="44.75580211840039" lon="8.345858875436798"><ele>140.0</ele><time>2026-03-28T11:01:22.999Z</time></trkpt><trkpt lat="44.75585885444709" lon="8.345819666557029"><ele>140.0</ele><time>2026-03-28T11:01:27.999Z</time></trkpt><trkpt lat="44.755918240887326" lon="8.345760809206691"><ele>140.0</ele><time>2026-03-28T11:01:33.999Z</time></trkpt><trkpt lat="44.755973317541" lon="8.345712060348271"><ele>140.0</ele><time>2026-03-28T11:01:39.999Z</time></trkpt><trkpt lat="44.756033909489894" lon="8.3456584429365"><ele>140.0</ele><time>2026-03-28T11:01:46.999Z</time></trkpt><trkpt lat="44.75609132578637" lon="8.345603024907781"><ele>140.0</ele><time>2026-03-28T11:01:52.999Z</time></trkpt><trkpt lat="44.75614779526504" lon="8.34554884250871"><ele>140.14285714285714</ele><time>2026-03-28T11:01:58.999Z</time></trkpt><trkpt lat="44.7562046231052" lon="8.345501891022042"><ele>140.28571428571428</ele><time>2026-03-28T11:02:03.999Z</time></trkpt><trkpt lat="44.756261567168025" lon="8.345458837255826"><ele>140.42857142857144</ele><time>2026-03-28T11:02:09.999Z</time></trkpt><trkpt lat="44.7563260280398" lon="8.345425636409233"><ele>140.57142857142856</ele><time>2026-03-28T11:02:16Z</time></trkpt><trkpt lat="44.756387161583106" lon="8.3453851757524"><ele>140.71428571428572</ele><time>2026-03-28T11:02:22Z</time></trkpt><trkpt lat="44.7564557919603" lon="8.345342877737178"><ele>140.85714285714286</ele><time>2026-03-28T11:02:29Z</time></trkpt><trkpt lat="44.75652234433671" lon="8.345317377225278"><ele>141.0</ele><time>2026-03-28T11:02:36Z</time></trkpt><trkpt lat="44.75659349472027" lon="8.345308032551657"><ele>141.0</ele><time>2026-03-28T11:02:42Z</time></trkpt><trkpt lat="44.75666708453045" lon="8.345284832299404"><ele>141.0</ele><time>2026-03-28T11:02:48Z</time></trkpt><trkpt lat="44.756734205528836" lon="8.345276904294078"><ele>141.0</ele><time>2026-03-28T11:02:53Z</time></trkpt><trkpt lat="44.75680115186541" lon="8.345271223115077"><ele>141.0</ele><time>2026-03-28T11:02:59Z</time></trkpt><trkpt lat="44.75686763681133" lon="8.345261541426693"><ele>141.0</ele><time>2026-03-28T11:03:05Z</time></trkpt><trkpt lat="44.75693065602911" lon="8.34526186918916"><ele>141.0</ele><time>2026-03-28T11:03:10Z</time></trkpt><trkpt lat="44.7569987713788" lon="8.345256844333056"><ele>141.0</ele><time>2026-03-28T11:03:15Z</time></trkpt><trkpt lat="44.75706427385371" lon="8.345259104578746"><ele>140.85714285714286</ele><time>2026-03-28T11:03:20Z</time></trkpt><trkpt lat="44.75713392532319" lon="8.345253787115354"><ele>140.71428571428572</ele><time>2026-03-28T11:03:25Z</time></trkpt><trkpt lat="44.75719717248975" lon="8.345249161939224"><ele>140.57142857142856</ele><time>2026-03-28T11:03:29.999Z</time></trkpt><trkpt lat="44.75725985137405" lon="8.345259630615123"><ele>140.42857142857144</ele><time>2026-03-28T11:03:34.999Z</time></trkpt><trkpt lat="44.75733297891251" lon="8.345250384429258"><ele>140.28571428571428</ele><time>2026-03-28T11:03:40.999Z</time></trkpt><trkpt lat="44.757405885790746" lon="8.345254345645161"><ele>140.14285714285714</ele><time>2026-03-28T11:03:46.999Z</time></trkpt><trkpt lat="44.757478095418655" lon="8.345250856518112"><ele>140.0</ele><time>2026-03-28T11:03:52.999Z</time></trkpt><trkpt lat="44.75755314634009" lon="8.345253682504332"><ele>140.0</ele><time>2026-03-28T11:03:58.999Z</time></trkpt><trkpt lat="44.75762528834973" lon="8.345252645799048"><ele>140.0</ele><time>2026-03-28T11:04:04.999Z</time></trkpt><trkpt lat="44.75769948304786" lon="8.345247650814507"><ele>140.0</ele><time>2026-03-28T11:04:10.999Z</time></trkpt><trkpt lat="44.75777155553151" lon="8.345244101128639"><ele>140.0</ele><time>2026-03-28T11:04:17Z</time></trkpt><trkpt lat="44.75783588331891" lon="8.345243240996817"><ele>140.0</ele><time>2026-03-28T11:04:22Z</time></trkpt><trkpt lat="44.757906560163576" lon="8.34523465924826"><ele>140.0</ele><time>2026-03-28T11:04:28Z</time></trkpt><trkpt lat="44.75798450115329" lon="8.345224889644356"><ele>140.0</ele><time>2026-03-28T11:04:34Z</time></trkpt><trkpt lat="44.758047721594494" lon="8.345215358264467"><ele>140.0</ele><time>2026-03-28T11:04:39Z</time></trkpt><trkpt lat="44.75811981293222" lon="8.345203776892042"><ele>140.0</ele><time>2026-03-28T11:04:45Z</time></trkpt><trkpt lat="44.758184236606056" lon="8.345192659263907"><ele>140.0</ele><time>2026-03-28T11:04:50Z</time></trkpt><trkpt lat="44.75825479727892" lon="8.345189201573913"><ele>140.0</ele><time>2026-03-28T11:04:56Z</time></trkpt><trkpt lat="44.75832060677333" lon="8.34517836509808"><ele>140.0</ele><time>2026-03-28T11:05:01Z</time></trkpt><trkpt lat="44.75838887076547" lon="8.34517135374223"><ele>140.0</ele><time>2026-03-28T11:05:07Z</time></trkpt><trkpt lat="44.758463230238895" lon="8.34515868871929"><ele>140.0</ele><time>2026-03-28T11:05:13Z</time></trkpt><trkpt lat="44.75853484982913" lon="8.345151767487446"><ele>139.71428571428572</ele><time>2026-03-28T11:05:19Z</time></trkpt><trkpt lat="44.75859776974955" lon="8.345141717525973"><ele>139.42857142857144</ele><time>2026-03-28T11:05:25Z</time></trkpt><trkpt lat="44.7586654553136" lon="8.345137090367947"><ele>139.14285714285714</ele><time>2026-03-28T11:05:30Z</time></trkpt><trkpt lat="44.7587362578813" lon="8.345123961005774"><ele>138.85714285714286</ele><time>2026-03-28T11:05:36.999Z</time></trkpt><trkpt lat="44.75880870886053" lon="8.34510741480157"><ele>138.57142857142858</ele><time>2026-03-28T11:05:42.999Z</time></trkpt><trkpt lat="44.75887710206072" lon="8.345101150858467"><ele>138.28571428571428</ele><time>2026-03-28T11:05:48.999Z</time></trkpt><trkpt lat="44.758943200825925" lon="8.345089510209535"><ele>138.0</ele><time>2026-03-28T11:05:53.999Z</time></trkpt><trkpt lat="44.75901294443512" lon="8.345080149211542"><ele>138.0</ele><time>2026-03-28T11:05:59.999Z</time></trkpt><trkpt lat="44.75908569443131" lon="8.345073933323029"><ele>138.0</ele><time>2026-03-28T11:06:06.999Z</time></trkpt><trkpt lat="44.75915302104635" lon="8.345053636505682"><ele>138.0</ele><time>2026-03-28T11:06:13.999Z</time></trkpt><trkpt lat="44.75921814087158" lon="8.345042501974458"><ele>138.0</ele><time>2026-03-28T11:06:19.999Z</time></trkpt><trkpt lat="44.759284628598586" lon="8.345050224478308"><ele>138.0</ele><time>2026-03-28T11:06:25Z</time></trkpt><trkpt lat="44.759350665006046" lon="8.345051604846772"><ele>138.0</ele><time>2026-03-28T11:06:30Z</time></trkpt><trkpt lat="44.75942253103191" lon="8.345055837045972"><ele>138.0</ele><time>2026-03-28T11:06:36Z</time></trkpt><trkpt lat="44.75948991545388" lon="8.345071666245406"><ele>138.14285714285714</ele><time>2026-03-28T11:06:42Z</time></trkpt><trkpt lat="44.75955883601297" lon="8.34508090141079"><ele>138.2857142857143</ele><time>2026-03-28T11:06:48Z</time></trkpt><trkpt lat="44.75962799126787" lon="8.345082611119107"><ele>138.42857142857144</ele><time>2026-03-28T11:06:53Z</time></trkpt><trkpt lat="44.75969198768808" lon="8.345095873097897"><ele>138.57142857142858</ele><time>2026-03-28T11:06:58Z</time></trkpt><trkpt lat="44.759760650442956" lon="8.345108839893893"><ele>138.71428571428572</ele><time>2026-03-28T11:07:03Z</time></trkpt><trkpt lat="44.75983056643994" lon="8.345128712357647"><ele>138.85714285714286</ele><time>2026-03-28T11:07:09Z</time></trkpt><trkpt lat="44.75990121781549" lon="8.345140121128669"><ele>139.0</ele><time>2026-03-28T11:07:15Z</time></trkpt><trkpt lat="44.75996837699656" lon="8.34515365588337"><ele>139.0</ele><time>2026-03-28T11:07:21Z</time></trkpt><trkpt lat="44.76004445604385" lon="8.345165053668142"><ele>139.0</ele><time>2026-03-28T11:07:28Z</time></trkpt><trkpt lat="44.76010875579615" lon="8.34515268670241"><ele>139.0</ele><time>2026-03-28T11:07:34Z</time></trkpt><trkpt lat="44.760172300251824" lon="8.345174648719215"><ele>139.0</ele><time>2026-03-28T11:07:39Z</time></trkpt><trkpt lat="44.76023699937076" lon="8.345200312260593"><ele>139.0</ele><time>2026-03-28T11:07:43.999Z</time></trkpt><trkpt lat="44.760299640834255" lon="8.34521073136416"><ele>139.0</ele><time>2026-03-28T11:07:48.999Z</time></trkpt><trkpt lat="44.76036704179572" lon="8.345225446457137"><ele>139.0</ele><time>2026-03-28T11:07:53.999Z</time></trkpt><trkpt lat="44.76043412156048" lon="8.34524065661507"><ele>139.0</ele><time>2026-03-28T11:07:59.999Z</time></trkpt><trkpt lat="44.760505223344744" lon="8.345274018701868"><ele>139.0</ele><time>2026-03-28T11:08:05.999Z</time></trkpt><trkpt lat="44.76056830303982" lon="8.345290587621939"><ele>139.0</ele><time>2026-03-28T11:08:10.999Z</time></trkpt><trkpt lat="44.760634951438426" lon="8.345307423007867"><ele>139.0</ele><time>2026-03-28T11:08:16.999Z</time></trkpt><trkpt lat="44.760703928329285" lon="8.345337908766629"><ele>139.0</ele><time>2026-03-28T11:08:22.999Z</time></trkpt><trkpt lat="44.760770315450564" lon="8.345360595171993"><ele>139.0</ele><time>2026-03-28T11:08:29Z</time></trkpt><trkpt lat="44.76084331436801" lon="8.345377570876849"><ele>139.0</ele><time>2026-03-28T11:08:35Z</time></trkpt><trkpt lat="44.76091043651661" lon="8.345390434497405"><ele>139.0</ele><time>2026-03-28T11:08:40Z</time></trkpt><trkpt lat="44.76097774271538" lon="8.345414301405741"><ele>139.0</ele><time>2026-03-28T11:08:46Z</time></trkpt><trkpt lat="44.761046211130655" lon="8.345411667185317"><ele>139.0</ele><time>2026-03-28T11:08:50Z</time></trkpt><trkpt lat="44.761125768367634" lon="8.345410547942196"><ele>139.0</ele><time>2026-03-28T11:08:56Z</time></trkpt><trkpt lat="44.76120021572066" lon="8.345381638293267"><ele>139.0</ele><time>2026-03-28T11:09:03Z</time></trkpt><trkpt lat="44.761274831759" lon="8.34537200573472"><ele>139.0</ele><time>2026-03-28T11:09:08Z</time></trkpt><trkpt lat="44.76133530623039" lon="8.34533389298127"><ele>139.0</ele><time>2026-03-28T11:09:13Z</time></trkpt><trkpt lat="44.761396799302325" lon="8.345282706782198"><ele>139.28571428571428</ele><time>2026-03-28T11:09:18Z</time></trkpt><trkpt lat="44.7614484958837" lon="8.345231537131115"><ele>139.57142857142858</ele><time>2026-03-28T11:09:23Z</time></trkpt><trkpt lat="44.761503007091115" lon="8.345172259744393"><ele>139.85714285714286</ele><time>2026-03-28T11:09:28Z</time></trkpt><trkpt lat="44.76154769340475" lon="8.345093934459156"><ele>140.14285714285714</ele><time>2026-03-28T11:09:34Z</time></trkpt><trkpt lat="44.76158385534464" lon="8.345016577492638"><ele>140.42857142857142</ele><time>2026-03-28T11:09:39Z</time></trkpt><trkpt lat="44.76163110249726" lon="8.3449569531423"><ele>140.71428571428572</ele><time>2026-03-28T11:09:44Z</time></trkpt><trkpt lat="44.76168930688748" lon="8.344910047526673"><ele>141.0</ele><time>2026-03-28T11:09:48.999Z</time></trkpt><trkpt lat="44.7617640880633" lon="8.344887329669952"><ele>141.0</ele><time>2026-03-28T11:09:54.999Z</time></trkpt><trkpt lat="44.76182717747625" lon="8.3448900322979"><ele>141.0</ele><time>2026-03-28T11:09:59.999Z</time></trkpt><trkpt lat="44.76189629771762" lon="8.344923400106238"><ele>141.0</ele><time>2026-03-28T11:10:04.999Z</time></trkpt><trkpt lat="44.761963746507085" lon="8.344955827146016"><ele>141.0</ele><time>2026-03-28T11:10:10.999Z</time></trkpt><trkpt lat="44.7620246921789" lon="8.344980392423746"><ele>141.0</ele><time>2026-03-28T11:10:16.999Z</time></trkpt><trkpt lat="44.76208997235766" lon="8.34500053873493"><ele>141.0</ele><time>2026-03-28T11:10:22.999Z</time></trkpt><trkpt lat="44.762156992336166" lon="8.345037345758652"><ele>141.0</ele><time>2026-03-28T11:10:28.999Z</time></trkpt><trkpt lat="44.76222601466928" lon="8.345069382670955"><ele>140.85714285714286</ele><time>2026-03-28T11:10:36Z</time></trkpt><trkpt lat="44.76229057089275" lon="8.345115559472923"><ele>140.71428571428572</ele><time>2026-03-28T11:10:41Z</time></trkpt><trkpt lat="44.762359569182834" lon="8.345155984325945"><ele>140.57142857142856</ele><time>2026-03-28T11:10:47Z</time></trkpt><trkpt lat="44.76242647228388" lon="8.345189999701708"><ele>140.42857142857144</ele><time>2026-03-28T11:10:54Z</time></trkpt><trkpt lat="44.762481507113" lon="8.345237291423663"><ele>140.28571428571428</ele><time>2026-03-28T11:11:01Z</time></trkpt><trkpt lat="44.76253691417475" lon="8.345284970882663"><ele>140.14285714285714</ele><time>2026-03-28T11:11:06Z</time></trkpt><trkpt lat="44.76259553032365" lon="8.345349117489002"><ele>140.0</ele><time>2026-03-28T11:11:13Z</time></trkpt><trkpt lat="44.76265679973448" lon="8.345413981058908"><ele>139.83333333333331</ele><time>2026-03-28T11:11:19Z</time></trkpt><trkpt lat="44.76271188349553" lon="8.345471615935553"><ele>139.66666666666666</ele><time>2026-03-28T11:11:24Z</time></trkpt><trkpt lat="44.7627726582654" lon="8.345533486249646"><ele>139.5</ele><time>2026-03-28T11:11:29Z</time></trkpt><trkpt lat="44.76283485710754" lon="8.345596979073411"><ele>139.33333333333334</ele><time>2026-03-28T11:11:34Z</time></trkpt><trkpt lat="44.76289185185382" lon="8.345649429344626"><ele>139.16666666666669</ele><time>2026-03-28T11:11:40Z</time></trkpt><trkpt lat="44.76294181965126" lon="8.345704238082586"><ele>139.0</ele><time>2026-03-28T11:11:45Z</time></trkpt><trkpt lat="44.76304459640595" lon="8.345837915140375"><ele>139.0</ele><time>2026-03-28T11:12:04.999Z</time></trkpt><trkpt lat="44.76310578391323" lon="8.345862152075592"><ele>139.0</ele><time>2026-03-28T11:12:10.999Z</time></trkpt><trkpt lat="44.763161158606366" lon="8.345912411490396"><ele>139.0</ele><time>2026-03-28T11:12:16.999Z</time></trkpt><trkpt lat="44.763218850249054" lon="8.345975693753926"><ele>139.0</ele><time>2026-03-28T11:12:22.999Z</time></trkpt><trkpt lat="44.76327969681975" lon="8.346038504872514"><ele>139.0</ele><time>2026-03-28T11:12:27.999Z</time></trkpt><trkpt lat="44.76333569846867" lon="8.346092617997702"><ele>139.0</ele><time>2026-03-28T11:12:33.999Z</time></trkpt><trkpt lat="44.763404187916585" lon="8.346140832939891"><ele>139.0</ele><time>2026-03-28T11:12:39.999Z</time></trkpt><trkpt lat="44.76346368803074" lon="8.346180568530675"><ele>139.0</ele><time>2026-03-28T11:12:46Z</time></trkpt><trkpt lat="44.763525767527085" lon="8.34621801266313"><ele>139.0</ele><time>2026-03-28T11:12:51Z</time></trkpt><trkpt lat="44.76359542137612" lon="8.346271208237026"><ele>139.0</ele><time>2026-03-28T11:12:57Z</time></trkpt><trkpt lat="44.76365340775936" lon="8.346312955110651"><ele>139.0</ele><time>2026-03-28T11:13:02Z</time></trkpt><trkpt lat="44.76371356328742" lon="8.34636400263742"><ele>139.0</ele><time>2026-03-28T11:13:07Z</time></trkpt><trkpt lat="44.763767114474135" lon="8.346424245523805"><ele>139.0</ele><time>2026-03-28T11:13:12Z</time></trkpt><trkpt lat="44.76381049732965" lon="8.346512109544232"><ele>139.0</ele><time>2026-03-28T11:13:18Z</time></trkpt><trkpt lat="44.76384573807897" lon="8.346587145405632"><ele>138.85714285714286</ele><time>2026-03-28T11:13:23Z</time></trkpt><trkpt lat="44.76387698651115" lon="8.34667401817012"><ele>138.71428571428572</ele><time>2026-03-28T11:13:28Z</time></trkpt><trkpt lat="44.76392088320767" lon="8.346739454979275"><ele>138.57142857142858</ele><time>2026-03-28T11:13:33Z</time></trkpt><trkpt lat="44.76398143992515" lon="8.346810984336788"><ele>138.42857142857144</ele><time>2026-03-28T11:13:39Z</time></trkpt><trkpt lat="44.764041044863994" lon="8.346877140020622"><ele>138.2857142857143</ele><time>2026-03-28T11:13:45Z</time></trkpt><trkpt lat="44.76410399488162" lon="8.34694508560469"><ele>138.14285714285714</ele><time>2026-03-28T11:13:50.999Z</time></trkpt><trkpt lat="44.764162653428585" lon="8.346998735933788"><ele>138.0</ele><time>2026-03-28T11:13:56.999Z</time></trkpt><trkpt lat="44.76422124670565" lon="8.347054475293053"><ele>138.0</ele><time>2026-03-28T11:14:02.999Z</time></trkpt><trkpt lat="44.76427463497518" lon="8.347104022569344"><ele>138.0</ele><time>2026-03-28T11:14:07.999Z</time></trkpt><trkpt lat="44.76433628863008" lon="8.347157413246327"><ele>138.0</ele><time>2026-03-28T11:14:12.999Z</time></trkpt><trkpt lat="44.76439502599339" lon="8.347217148876023"><ele>138.0</ele><time>2026-03-28T11:14:18.999Z</time></trkpt><trkpt lat="44.76445583360468" lon="8.347272220876322"><ele>138.0</ele><time>2026-03-28T11:14:24.999Z</time></trkpt><trkpt lat="44.764511735303536" lon="8.34732090924858"><ele>138.0</ele><time>2026-03-28T11:14:29.999Z</time></trkpt><trkpt lat="44.76457716810622" lon="8.347370660405737"><ele>138.0</ele><time>2026-03-28T11:14:35.999Z</time></trkpt><trkpt lat="44.76463465646136" lon="8.347410582539508"><ele>137.71428571428572</ele><time>2026-03-28T11:14:40.999Z</time></trkpt><trkpt lat="44.76469865007767" lon="8.347458714667923"><ele>137.42857142857144</ele><time>2026-03-28T11:14:47Z</time></trkpt><trkpt lat="44.7647645609987" lon="8.347502716524161"><ele>137.14285714285714</ele><time>2026-03-28T11:14:53Z</time></trkpt><trkpt lat="44.76482496528714" lon="8.347536268440143"><ele>136.85714285714286</ele><time>2026-03-28T11:14:58Z</time></trkpt><trkpt lat="44.76489381032766" lon="8.347576327410064"><ele>136.57142857142856</ele><time>2026-03-28T11:15:04Z</time></trkpt><trkpt lat="44.76495689484251" lon="8.347625075867317"><ele>136.28571428571428</ele><time>2026-03-28T11:15:10Z</time></trkpt><trkpt lat="44.76502786342646" lon="8.347661959342435"><ele>136.0</ele><time>2026-03-28T11:15:17Z</time></trkpt><trkpt lat="44.7650984299456" lon="8.34769839327256"><ele>135.99999999999997</ele><time>2026-03-28T11:15:24Z</time></trkpt><trkpt lat="44.765164484499074" lon="8.347729826465695"><ele>136.0</ele><time>2026-03-28T11:15:30Z</time></trkpt><trkpt lat="44.765227072017446" lon="8.347765754338898"><ele>136.0</ele><time>2026-03-28T11:15:36Z</time></trkpt><trkpt lat="44.765289893066765" lon="8.347793781007223"><ele>136.0</ele><time>2026-03-28T11:15:42Z</time></trkpt><trkpt lat="44.76535500619476" lon="8.347817191295814"><ele>136.0</ele><time>2026-03-28T11:15:48Z</time></trkpt><trkpt lat="44.76541514040567" lon="8.347846317596126"><ele>135.99999999999997</ele><time>2026-03-28T11:15:54Z</time></trkpt><trkpt lat="44.765487304562335" lon="8.347874746110747"><ele>136.0</ele><time>2026-03-28T11:16:00.999Z</time></trkpt><trkpt lat="44.76555250948669" lon="8.3478925699825"><ele>136.28571428571428</ele><time>2026-03-28T11:16:06.999Z</time></trkpt><trkpt lat="44.765613790439005" lon="8.347919377433092"><ele>136.57142857142856</ele><time>2026-03-28T11:16:11.999Z</time></trkpt><trkpt lat="44.76567871843292" lon="8.347938435508848"><ele>136.85714285714286</ele><time>2026-03-28T11:16:16.999Z</time></trkpt><trkpt lat="44.76574882145196" lon="8.347962441613562"><ele>137.14285714285714</ele><time>2026-03-28T11:16:22.999Z</time></trkpt><trkpt lat="44.76581317208339" lon="8.347985950804562"><ele>137.42857142857144</ele><time>2026-03-28T11:16:27.999Z</time></trkpt><trkpt lat="44.7658750467395" lon="8.348010120042145"><ele>137.71428571428572</ele><time>2026-03-28T11:16:32.999Z</time></trkpt><trkpt lat="44.76594586051896" lon="8.348036602533806"><ele>138.0</ele><time>2026-03-28T11:16:38.999Z</time></trkpt><trkpt lat="44.766012992155915" lon="8.348060713700068"><ele>137.85714285714286</ele><time>2026-03-28T11:16:44.999Z</time></trkpt><trkpt lat="44.76607454621351" lon="8.348083935409564"><ele>137.71428571428572</ele><time>2026-03-28T11:16:49.999Z</time></trkpt><trkpt lat="44.76614297211991" lon="8.348108812083156"><ele>137.57142857142858</ele><time>2026-03-28T11:16:56Z</time></trkpt><trkpt lat="44.76621359663327" lon="8.348144675136574"><ele>137.42857142857144</ele><time>2026-03-28T11:17:02Z</time></trkpt><trkpt lat="44.76627451954954" lon="8.34817480715932"><ele>137.28571428571428</ele><time>2026-03-28T11:17:08Z</time></trkpt><trkpt lat="44.76633583449715" lon="8.34819874534773"><ele>137.14285714285717</ele><time>2026-03-28T11:17:13Z</time></trkpt><trkpt lat="44.766391515043686" lon="8.348255666699112"><ele>137.0</ele><time>2026-03-28T11:17:19Z</time></trkpt><trkpt lat="44.76640994538774" lon="8.348356399532584"><ele>137.00000000000003</ele><time>2026-03-28T11:17:25Z</time></trkpt><trkpt lat="44.76639503414846" lon="8.348443132106985"><ele>137.0</ele><time>2026-03-28T11:17:32Z</time></trkpt><trkpt lat="44.76636938453235" lon="8.348532693631437"><ele>137.0</ele><time>2026-03-28T11:17:41Z</time></trkpt><trkpt lat="44.76634050437517" lon="8.34862570505077"><ele>137.0</ele><time>2026-03-28T11:17:47Z</time></trkpt><trkpt lat="44.766315340292685" lon="8.34872036573381"><ele>137.0</ele><time>2026-03-28T11:17:53Z</time></trkpt><trkpt lat="44.76629712640064" lon="8.348810639668343"><ele>137.00000000000003</ele><time>2026-03-28T11:17:57.999Z</time></trkpt><trkpt lat="44.766269520195536" lon="8.348891613886158"><ele>137.0</ele><time>2026-03-28T11:18:02.999Z</time></trkpt><trkpt lat="44.76624038824413" lon="8.348987021423262"><ele>136.71428571428572</ele><time>2026-03-28T11:18:08.999Z</time></trkpt><trkpt lat="44.76621291947566" lon="8.349081463405238"><ele>136.42857142857144</ele><time>2026-03-28T11:18:14.999Z</time></trkpt><trkpt lat="44.76618547884309" lon="8.349176608358558"><ele>136.14285714285714</ele><time>2026-03-28T11:18:20.999Z</time></trkpt><trkpt lat="44.76616179152507" lon="8.349261464618017"><ele>135.85714285714286</ele><time>2026-03-28T11:18:25.999Z</time></trkpt><trkpt lat="44.76613621129498" lon="8.349356414831542"><ele>135.57142857142856</ele><time>2026-03-28T11:18:31.999Z</time></trkpt><trkpt lat="44.766111423295385" lon="8.349453776246552"><ele>135.28571428571428</ele><time>2026-03-28T11:18:37.999Z</time></trkpt><trkpt lat="44.76608597056728" lon="8.349536914732738"><ele>135.0</ele><time>2026-03-28T11:18:42.999Z</time></trkpt><trkpt lat="44.76606226014225" lon="8.349622560646159"><ele>135.14285714285714</ele><time>2026-03-28T11:18:47.999Z</time></trkpt><trkpt lat="44.76603126431925" lon="8.349717458608827"><ele>135.28571428571428</ele><time>2026-03-28T11:18:53.999Z</time></trkpt><trkpt lat="44.76600637245281" lon="8.34980365198995"><ele>135.42857142857142</ele><time>2026-03-28T11:18:59Z</time></trkpt><trkpt lat="44.76597782671841" lon="8.349902113615155"><ele>135.57142857142856</ele><time>2026-03-28T11:19:06Z</time></trkpt><trkpt lat="44.76595637563349" lon="8.349993359589885"><ele>135.71428571428572</ele><time>2026-03-28T11:19:11Z</time></trkpt><trkpt lat="44.76592158401662" lon="8.35007091307173"><ele>135.85714285714283</ele><time>2026-03-28T11:19:16Z</time></trkpt><trkpt lat="44.76590893251051" lon="8.350167106949225"><ele>136.0</ele><time>2026-03-28T11:19:21Z</time></trkpt><trkpt lat="44.765891780599524" lon="8.35025544703639"><ele>136.28571428571428</ele><time>2026-03-28T11:19:26Z</time></trkpt><trkpt lat="44.76587113004126" lon="8.35035523864812"><ele>136.57142857142856</ele><time>2026-03-28T11:19:32Z</time></trkpt><trkpt lat="44.76586333859276" lon="8.350457472422734"><ele>136.85714285714286</ele><time>2026-03-28T11:19:38Z</time></trkpt><trkpt lat="44.76585940912681" lon="8.350561038536853"><ele>137.14285714285714</ele><time>2026-03-28T11:19:44Z</time></trkpt><trkpt lat="44.76584643921324" lon="8.350657411441482"><ele>137.42857142857144</ele><time>2026-03-28T11:19:50Z</time></trkpt><trkpt lat="44.765836059129676" lon="8.35076354855064"><ele>137.71428571428572</ele><time>2026-03-28T11:19:56Z</time></trkpt><trkpt lat="44.7658184986612" lon="8.350853554563475"><ele>138.0</ele><time>2026-03-28T11:20:15.999Z</time></trkpt><trkpt lat="44.765766383683506" lon="8.350917917094247"><ele>138.42857142857144</ele><time>2026-03-28T11:20:21.999Z</time></trkpt><trkpt lat="44.76570455917597" lon="8.350974241048922"><ele>138.85714285714286</ele><time>2026-03-28T11:20:27.999Z</time></trkpt><trkpt lat="44.76564029794064" lon="8.350987521169916"><ele>139.28571428571428</ele><time>2026-03-28T11:20:33.999Z</time></trkpt><trkpt lat="44.765567943931856" lon="8.350996906951266"><ele>139.71428571428572</ele><time>2026-03-28T11:20:40.999Z</time></trkpt><trkpt lat="44.76550378846482" lon="8.350993725964146"><ele>140.14285714285714</ele><time>2026-03-28T11:20:45.999Z</time></trkpt><trkpt lat="44.76542472063402" lon="8.351001412267097"><ele>140.57142857142858</ele><time>2026-03-28T11:20:52.999Z</time></trkpt><trkpt lat="44.76535499481041" lon="8.350989057584297"><ele>141.0</ele><time>2026-03-28T11:21:02.999Z</time></trkpt><trkpt lat="44.765277286076326" lon="8.350974458328867"><ele>141.0</ele><time>2026-03-28T11:21:21.999Z</time></trkpt><trkpt lat="44.765202568943955" lon="8.350954370759277"><ele>141.0</ele><time>2026-03-28T11:21:33.999Z</time></trkpt><trkpt lat="44.765131954363355" lon="8.350938305693443"><ele>141.0</ele><time>2026-03-28T11:21:45.999Z</time></trkpt><trkpt lat="44.76506728017616" lon="8.350960868303718"><ele>141.0</ele><time>2026-03-28T11:21:52.999Z</time></trkpt><trkpt lat="44.76499098148525" lon="8.350944395672693"><ele>141.0</ele><time>2026-03-28T11:21:59.999Z</time></trkpt><trkpt lat="44.76492042107638" lon="8.351002494549514"><ele>141.0</ele><time>2026-03-28T11:22:04.999Z</time></trkpt><trkpt lat="44.764847919474235" lon="8.35099950345466"><ele>141.0</ele><time>2026-03-28T11:22:07.999Z</time></trkpt><trkpt lat="44.76478744931162" lon="8.350929876273634"><ele>141.28571428571428</ele><time>2026-03-28T11:22:11.999Z</time></trkpt><trkpt lat="44.76471893113875" lon="8.350910886089846"><ele>141.57142857142856</ele><time>2026-03-28T11:22:15.999Z</time></trkpt><trkpt lat="44.76465481386593" lon="8.350954041031361"><ele>141.85714285714283</ele><time>2026-03-28T11:22:23.999Z</time></trkpt><trkpt lat="44.76459381910874" lon="8.35093197314379"><ele>142.14285714285714</ele><time>2026-03-28T11:22:27.999Z</time></trkpt><trkpt lat="44.764526030869945" lon="8.35095113236354"><ele>142.42857142857142</ele><time>2026-03-28T11:22:34.999Z</time></trkpt><trkpt lat="44.764459406867026" lon="8.350949569459898"><ele>142.7142857142857</ele><time>2026-03-28T11:22:39.999Z</time></trkpt><trkpt lat="44.76439237303006" lon="8.3509563298035"><ele>143.0</ele><time>2026-03-28T11:22:45.999Z</time></trkpt><trkpt lat="44.7643155937148" lon="8.350980622212164"><ele>143.0</ele><time>2026-03-28T11:22:50.999Z</time></trkpt><trkpt lat="44.764246242185656" lon="8.351005962651783"><ele>143.0</ele><time>2026-03-28T11:22:55.999Z</time></trkpt><trkpt lat="44.76431671926515" lon="8.351127745705302"><ele>143.0</ele><time>2026-03-28T11:23:55.999Z</time></trkpt><trkpt lat="44.76430315136506" lon="8.351005225588096"><ele>143.0</ele><time>2026-03-28T11:24:42.999Z</time></trkpt><trkpt lat="44.764289649493165" lon="8.3509183210566"><ele>143.0</ele><time>2026-03-28T11:25:00.999Z</time></trkpt><trkpt lat="44.76441660508549" lon="8.350891098025295"><ele>143.0</ele><time>2026-03-28T11:25:31Z</time></trkpt><trkpt lat="44.76449123700105" lon="8.35092765237424"><ele>143.0</ele><time>2026-03-28T11:25:37Z</time></trkpt><trkpt lat="44.76454342521355" lon="8.350876170842334"><ele>143.0</ele><time>2026-03-28T11:25:41Z</time></trkpt><trkpt lat="44.76464201505084" lon="8.350818790894909"><ele>143.0</ele><time>2026-03-28T11:25:50Z</time></trkpt><trkpt lat="44.76478124805226" lon="8.350816996523745"><ele>143.0</ele><time>2026-03-28T11:26:33.999Z</time></trkpt><trkpt lat="44.764910459118596" lon="8.350808960073858"><ele>143.0</ele><time>2026-03-28T11:26:48.999Z</time></trkpt><trkpt lat="44.76497612740498" lon="8.350843163155472"><ele>143.0</ele><time>2026-03-28T11:26:56.999Z</time></trkpt><trkpt lat="44.765040702612374" lon="8.350877141258234"><ele>143.0</ele><time>2026-03-28T11:27:02.999Z</time></trkpt><trkpt lat="44.76510269476475" lon="8.350905361116599"><ele>143.0</ele><time>2026-03-28T11:27:07.999Z</time></trkpt><trkpt lat="44.765167580424674" lon="8.350925624640304"><ele>143.0</ele><time>2026-03-28T11:27:12.999Z</time></trkpt><trkpt lat="44.76533443760911" lon="8.350952335747971"><ele>143.0</ele><time>2026-03-28T11:27:17.999Z</time></trkpt><trkpt lat="44.76540091393586" lon="8.3509739534135"><ele>142.7142857142857</ele><time>2026-03-28T11:27:23Z</time></trkpt><trkpt lat="44.765476469959815" lon="8.350978325230527"><ele>142.42857142857142</ele><time>2026-03-28T11:27:29Z</time></trkpt><trkpt lat="44.76554879815784" lon="8.350974650418388"><ele>142.14285714285714</ele><time>2026-03-28T11:27:34Z</time></trkpt><trkpt lat="44.76561535713307" lon="8.350981558213666"><ele>141.85714285714283</ele><time>2026-03-28T11:27:39Z</time></trkpt><trkpt lat="44.76568204436872" lon="8.350969561027082"><ele>141.57142857142856</ele><time>2026-03-28T11:27:44Z</time></trkpt><trkpt lat="44.7657510483339" lon="8.350940951671339"><ele>141.28571428571428</ele><time>2026-03-28T11:27:50Z</time></trkpt><trkpt lat="44.76580537580191" lon="8.350887536385052"><ele>141.0</ele><time>2026-03-28T11:27:55Z</time></trkpt><trkpt lat="44.76582034742655" lon="8.350793689409977"><ele>141.0</ele><time>2026-03-28T11:28:02Z</time></trkpt><trkpt lat="44.765850579326255" lon="8.350698087612951"><ele>141.0</ele><time>2026-03-28T11:28:09Z</time></trkpt><trkpt lat="44.76589167110091" lon="8.350623213639441"><ele>141.0</ele><time>2026-03-28T11:28:15Z</time></trkpt><trkpt lat="44.765912294913804" lon="8.350525126550346"><ele>141.0</ele><time>2026-03-28T11:28:21Z</time></trkpt><trkpt lat="44.76592674021154" lon="8.350433436408741"><ele>141.0</ele><time>2026-03-28T11:28:27Z</time></trkpt><trkpt lat="44.765933463462176" lon="8.350343057831648"><ele>141.0</ele><time>2026-03-28T11:28:33Z</time></trkpt><trkpt lat="44.7659451241559" lon="8.350245969995267"><ele>141.0</ele><time>2026-03-28T11:28:39Z</time></trkpt><trkpt lat="44.765952272768935" lon="8.35015532386102"><ele>140.57142857142858</ele><time>2026-03-28T11:28:44Z</time></trkpt><trkpt lat="44.765966516072574" lon="8.350054202732242"><ele>140.14285714285714</ele><time>2026-03-28T11:28:50Z</time></trkpt><trkpt lat="44.765980514369026" lon="8.34995137963497"><ele>139.71428571428572</ele><time>2026-03-28T11:28:55.999Z</time></trkpt><trkpt lat="44.76599362707306" lon="8.34985144833801"><ele>139.28571428571428</ele><time>2026-03-28T11:29:01.999Z</time></trkpt><trkpt lat="44.76601060116276" lon="8.34976420815743"><ele>138.85714285714286</ele><time>2026-03-28T11:29:06.999Z</time></trkpt><trkpt lat="44.76603233239941" lon="8.349678639309266"><ele>138.42857142857144</ele><time>2026-03-28T11:29:12.999Z</time></trkpt><trkpt lat="44.7660539538267" lon="8.3495779750754"><ele>138.0</ele><time>2026-03-28T11:29:18.999Z</time></trkpt><trkpt lat="44.76608172318943" lon="8.349497137073774"><ele>137.57142857142858</ele><time>2026-03-28T11:29:23.999Z</time></trkpt><trkpt lat="44.76611006851014" lon="8.34941745355226"><ele>137.14285714285717</ele><time>2026-03-28T11:29:29Z</time></trkpt><trkpt lat="44.766139410283195" lon="8.349317655631602"><ele>136.71428571428572</ele><time>2026-03-28T11:29:35Z</time></trkpt><trkpt lat="44.76616298070741" lon="8.34922877240862"><ele>136.28571428571428</ele><time>2026-03-28T11:29:40Z</time></trkpt><trkpt lat="44.76619520759179" lon="8.349140761468556"><ele>135.85714285714283</ele><time>2026-03-28T11:29:46Z</time></trkpt><trkpt lat="44.76621978355168" lon="8.349058234079907"><ele>135.42857142857142</ele><time>2026-03-28T11:29:51Z</time></trkpt><trkpt lat="44.76624624743953" lon="8.348976425520704"><ele>135.0</ele><time>2026-03-28T11:29:57Z</time></trkpt><trkpt lat="44.76627655271524" lon="8.348891806842103"><ele>135.28571428571428</ele><time>2026-03-28T11:30:03Z</time></trkpt><trkpt lat="44.76628938186567" lon="8.34880493661517"><ele>135.57142857142856</ele><time>2026-03-28T11:30:08Z</time></trkpt><trkpt lat="44.76631710261127" lon="8.348705524993443"><ele>135.85714285714286</ele><time>2026-03-28T11:30:13Z</time></trkpt><trkpt lat="44.766346723028185" lon="8.348622819497026"><ele>136.14285714285714</ele><time>2026-03-28T11:30:18Z</time></trkpt><trkpt lat="44.76637140842918" lon="8.348531150260351"><ele>136.42857142857144</ele><time>2026-03-28T11:30:24Z</time></trkpt><trkpt lat="44.76639864904969" lon="8.348434061383154"><ele>136.71428571428572</ele><time>2026-03-28T11:30:30Z</time></trkpt><trkpt lat="44.7664261232226" lon="8.348340670012975"><ele>137.0</ele><time>2026-03-28T11:30:36Z</time></trkpt><trkpt lat="44.76646047816718" lon="8.348264987266196"><ele>137.00000000000003</ele><time>2026-03-28T11:30:41Z</time></trkpt><trkpt lat="44.76653424320183" lon="8.348282712174385"><ele>137.0</ele><time>2026-03-28T11:30:48Z</time></trkpt><trkpt lat="44.76660377683804" lon="8.348290627883092"><ele>137.0</ele><time>2026-03-28T11:30:54Z</time></trkpt><trkpt lat="44.76667509346203" lon="8.348310094041668"><ele>137.0</ele><time>2026-03-28T11:30:59.999Z</time></trkpt><trkpt lat="44.766740977897186" lon="8.348328225653225"><ele>137.0</ele><time>2026-03-28T11:31:04.999Z</time></trkpt><trkpt lat="44.766804771522" lon="8.34834408216769"><ele>137.00000000000003</ele><time>2026-03-28T11:31:09.999Z</time></trkpt><trkpt lat="44.76687535588098" lon="8.34836519826935"><ele>137.0</ele><time>2026-03-28T11:31:15.999Z</time></trkpt><trkpt lat="44.766949436653675" lon="8.3483838237692"><ele>136.71428571428572</ele><time>2026-03-28T11:31:21.999Z</time></trkpt><trkpt lat="44.76702087766577" lon="8.348410084046202"><ele>136.42857142857144</ele><time>2026-03-28T11:31:27.999Z</time></trkpt><trkpt lat="44.76708766575039" lon="8.348423850398596"><ele>136.14285714285714</ele><time>2026-03-28T11:31:34Z</time></trkpt><trkpt lat="44.76715850250646" lon="8.348437935129645"><ele>135.85714285714286</ele><time>2026-03-28T11:31:40Z</time></trkpt><trkpt lat="44.76723024094823" lon="8.348455926608981"><ele>135.57142857142856</ele><time>2026-03-28T11:31:46Z</time></trkpt><trkpt lat="44.76729664187305" lon="8.3484724356483"><ele>135.28571428571428</ele><time>2026-03-28T11:31:57Z</time></trkpt><trkpt lat="44.767359638296966" lon="8.348491589501604"><ele>135.0</ele><time>2026-03-28T11:32:03Z</time></trkpt><trkpt lat="44.76742743544451" lon="8.348514775298352"><ele>135.0</ele><time>2026-03-28T11:32:09Z</time></trkpt><trkpt lat="44.76749541528014" lon="8.348528143956704"><ele>135.0</ele><time>2026-03-28T11:32:15Z</time></trkpt><trkpt lat="44.76756441763451" lon="8.348548631558392"><ele>135.0</ele><time>2026-03-28T11:32:21Z</time></trkpt><trkpt lat="44.76763179343999" lon="8.348564449992047"><ele>135.0</ele><time>2026-03-28T11:32:27Z</time></trkpt><trkpt lat="44.76769680750445" lon="8.348579373916046"><ele>135.0</ele><time>2026-03-28T11:32:33Z</time></trkpt><trkpt lat="44.767765408400386" lon="8.348586583058406"><ele>135.0</ele><time>2026-03-28T11:32:40Z</time></trkpt><trkpt lat="44.767829146278686" lon="8.348601236042532"><ele>135.0</ele><time>2026-03-28T11:32:46Z</time></trkpt><trkpt lat="44.76789961464371" lon="8.348623305535654"><ele>134.85714285714286</ele><time>2026-03-28T11:32:53Z</time></trkpt><trkpt lat="44.76796376163728" lon="8.34863879131453"><ele>134.7142857142857</ele><time>2026-03-28T11:32:58Z</time></trkpt><trkpt lat="44.76803007151027" lon="8.348660934888189"><ele>134.57142857142856</ele><time>2026-03-28T11:33:03.999Z</time></trkpt><trkpt lat="44.76809566472021" lon="8.348678541171564"><ele>134.42857142857142</ele><time>2026-03-28T11:33:08.999Z</time></trkpt><trkpt lat="44.76816074329606" lon="8.34868974075025"><ele>134.28571428571428</ele><time>2026-03-28T11:33:14.999Z</time></trkpt><trkpt lat="44.76823301536769" lon="8.348724556297636"><ele>134.14285714285714</ele><time>2026-03-28T11:33:28.999Z</time></trkpt><trkpt lat="44.76830799322939" lon="8.348744650896968"><ele>134.0</ele><time>2026-03-28T11:33:34.999Z</time></trkpt><trkpt lat="44.76837856993088" lon="8.34876464486523"><ele>134.0</ele><time>2026-03-28T11:33:41Z</time></trkpt><trkpt lat="44.76844790795743" lon="8.34878681344462"><ele>134.0</ele><time>2026-03-28T11:33:47Z</time></trkpt><trkpt lat="44.768513202260685" lon="8.348809457069914"><ele>134.0</ele><time>2026-03-28T11:33:54Z</time></trkpt><trkpt lat="44.76857896413466" lon="8.348831465892692"><ele>134.0</ele><time>2026-03-28T11:33:59Z</time></trkpt><trkpt lat="44.76864329578206" lon="8.348863312386728"><ele>134.0</ele><time>2026-03-28T11:34:05Z</time></trkpt><trkpt lat="44.76870437994909" lon="8.34890435680179"><ele>134.0</ele><time>2026-03-28T11:34:12Z</time></trkpt><trkpt lat="44.768761560965544" lon="8.348954422088866"><ele>134.0</ele><time>2026-03-28T11:34:18Z</time></trkpt><trkpt lat="44.76882295201792" lon="8.348981568992276"><ele>134.14285714285714</ele><time>2026-03-28T11:34:22Z</time></trkpt><trkpt lat="44.76887980440616" lon="8.34902811250651"><ele>134.28571428571428</ele><time>2026-03-28T11:34:27Z</time></trkpt><trkpt lat="44.768941592418194" lon="8.349074501250918"><ele>134.42857142857142</ele><time>2026-03-28T11:34:33Z</time></trkpt><trkpt lat="44.76900286363771" lon="8.349115041439532"><ele>134.57142857142856</ele><time>2026-03-28T11:34:39Z</time></trkpt><trkpt lat="44.76906307171569" lon="8.349163605163234"><ele>134.7142857142857</ele><time>2026-03-28T11:34:45Z</time></trkpt><trkpt lat="44.769125231459284" lon="8.349213470879072"><ele>134.85714285714286</ele><time>2026-03-28T11:34:51Z</time></trkpt><trkpt lat="44.76918286209642" lon="8.349253371853036"><ele>135.0</ele><time>2026-03-28T11:34:56.999Z</time></trkpt><trkpt lat="44.76924510132051" lon="8.349310967106895"><ele>135.0</ele><time>2026-03-28T11:35:04.999Z</time></trkpt><trkpt lat="44.76929936618847" lon="8.349361001810726"><ele>135.0</ele><time>2026-03-28T11:35:10.999Z</time></trkpt><trkpt lat="44.76935666281014" lon="8.349399268698068"><ele>135.0</ele><time>2026-03-28T11:35:15.999Z</time></trkpt><trkpt lat="44.76940910079125" lon="8.349449311927852"><ele>135.0</ele><time>2026-03-28T11:35:21.999Z</time></trkpt><trkpt lat="44.76945589592477" lon="8.349509496289466"><ele>135.0</ele><time>2026-03-28T11:35:26.999Z</time></trkpt><trkpt lat="44.76950248859114" lon="8.34957993967272"><ele>135.0</ele><time>2026-03-28T11:35:33.999Z</time></trkpt><trkpt lat="44.76954577223301" lon="8.349655462395996"><ele>135.0</ele><time>2026-03-28T11:35:40.999Z</time></trkpt><trkpt lat="44.76958447816866" lon="8.349750524623884"><ele>135.28571428571428</ele><time>2026-03-28T11:35:47Z</time></trkpt><trkpt lat="44.7696282891663" lon="8.349830260995795"><ele>135.57142857142856</ele><time>2026-03-28T11:35:53Z</time></trkpt><trkpt lat="44.769673588791434" lon="8.349908838254864"><ele>135.85714285714286</ele><time>2026-03-28T11:35:58Z</time></trkpt><trkpt lat="44.76971476266108" lon="8.349986471690944"><ele>136.14285714285714</ele><time>2026-03-28T11:36:04Z</time></trkpt><trkpt lat="44.769757702415426" lon="8.350071039592802"><ele>136.42857142857144</ele><time>2026-03-28T11:36:10Z</time></trkpt><trkpt lat="44.769816741370924" lon="8.350136282966847"><ele>136.71428571428572</ele><time>2026-03-28T11:36:15Z</time></trkpt><trkpt lat="44.76987787087111" lon="8.350174876376878"><ele>137.0</ele><time>2026-03-28T11:36:22Z</time></trkpt><trkpt lat="44.769910721979194" lon="8.350090119009314"><ele>137.00000000000003</ele><time>2026-03-28T11:36:32Z</time></trkpt><trkpt lat="44.76995036349801" lon="8.350018223271066"><ele>137.0</ele><time>2026-03-28T11:36:38Z</time></trkpt><trkpt lat="44.76998698709535" lon="8.349938356160187"><ele>137.0</ele><time>2026-03-28T11:36:44Z</time></trkpt><trkpt lat="44.77001257747728" lon="8.349841484946312"><ele>137.0</ele><time>2026-03-28T11:36:50Z</time></trkpt><trkpt lat="44.77003479835965" lon="8.349757786563693"><ele>137.0</ele><time>2026-03-28T11:36:55.999Z</time></trkpt><trkpt lat="44.77006218601621" lon="8.34966390074076"><ele>137.00000000000003</ele><time>2026-03-28T11:37:01.999Z</time></trkpt><trkpt lat="44.770091968601015" lon="8.349577058842637"><ele>137.0</ele><time>2026-03-28T11:37:07.999Z</time></trkpt><trkpt lat="44.770127460742394" lon="8.349476141462873"><ele>137.14285714285717</ele><time>2026-03-28T11:37:13.999Z</time></trkpt><trkpt lat="44.77015460851763" lon="8.349385047038401"><ele>137.28571428571428</ele><time>2026-03-28T11:37:19.999Z</time></trkpt><trkpt lat="44.770145184410474" lon="8.349291865197731"><ele>137.42857142857144</ele><time>2026-03-28T11:37:28.999Z</time></trkpt><trkpt lat="44.77021030254193" lon="8.349296586603034"><ele>137.57142857142858</ele><time>2026-03-28T11:37:38.999Z</time></trkpt><trkpt lat="44.77026588661372" lon="8.349370665401251"><ele>137.71428571428572</ele><time>2026-03-28T11:37:45.999Z</time></trkpt><trkpt lat="44.77030928487319" lon="8.349444941554887"><ele>137.85714285714286</ele><time>2026-03-28T11:37:50.999Z</time></trkpt><trkpt lat="44.77034296036578" lon="8.349523151678202"><ele>138.0</ele><time>2026-03-28T11:37:56Z</time></trkpt><trkpt lat="44.77038583821801" lon="8.349604900061328"><ele>138.28571428571428</ele><time>2026-03-28T11:38:02Z</time></trkpt><trkpt lat="44.77042410598883" lon="8.349675320150103"><ele>138.57142857142858</ele><time>2026-03-28T11:38:08Z</time></trkpt><trkpt lat="44.77046789914682" lon="8.349751752358022"><ele>138.85714285714286</ele><time>2026-03-28T11:38:14Z</time></trkpt><trkpt lat="44.77051764179667" lon="8.349831618039845"><ele>139.14285714285714</ele><time>2026-03-28T11:38:20Z</time></trkpt><trkpt lat="44.77055119155952" lon="8.349926313915631"><ele>139.42857142857144</ele><time>2026-03-28T11:38:26Z</time></trkpt><trkpt lat="44.77058572060388" lon="8.350014832762808"><ele>139.71428571428572</ele><time>2026-03-28T11:38:32Z</time></trkpt><trkpt lat="44.77061953911577" lon="8.350095060292775"><ele>140.0</ele><time>2026-03-28T11:38:38Z</time></trkpt><trkpt lat="44.770641913662445" lon="8.35019755427772"><ele>140.0</ele><time>2026-03-28T11:38:44Z</time></trkpt><trkpt lat="44.770656016560615" lon="8.350285606529168"><ele>140.0</ele><time>2026-03-28T11:38:49Z</time></trkpt><trkpt lat="44.77067789083099" lon="8.350378040848057"><ele>140.0</ele><time>2026-03-28T11:38:54.999Z</time></trkpt><trkpt lat="44.77071127973249" lon="8.350467824369673"><ele>140.0</ele><time>2026-03-28T11:39:00.999Z</time></trkpt><trkpt lat="44.77074294138715" lon="8.35056063669601"><ele>140.0</ele><time>2026-03-28T11:39:06.999Z</time></trkpt><trkpt lat="44.77076583600719" lon="8.35065525899307"><ele>140.0</ele><time>2026-03-28T11:39:11.999Z</time></trkpt><trkpt lat="44.770782913814216" lon="8.350747943169367"><ele>140.0</ele><time>2026-03-28T11:39:16.999Z</time></trkpt><trkpt lat="44.77080002202539" lon="8.35084371867579"><ele>140.0</ele><time>2026-03-28T11:39:23.999Z</time></trkpt><trkpt lat="44.77083974568283" lon="8.350928572740234"><ele>140.0</ele><time>2026-03-28T11:39:28.999Z</time></trkpt><trkpt lat="44.77084844265526" lon="8.35102420185067"><ele>140.0</ele><time>2026-03-28T11:39:34.999Z</time></trkpt><trkpt lat="44.770876970947334" lon="8.35111070156236"><ele>140.0</ele><time>2026-03-28T11:39:40.999Z</time></trkpt><trkpt lat="44.77089908908145" lon="8.351208952971739"><ele>140.0</ele><time>2026-03-28T11:39:45.999Z</time></trkpt><trkpt lat="44.77092639500883" lon="8.35130440630717"><ele>140.0</ele><time>2026-03-28T11:39:51.999Z</time></trkpt><trkpt lat="44.77096613673683" lon="8.35138315827713"><ele>140.0</ele><time>2026-03-28T11:39:59Z</time></trkpt><trkpt lat="44.77101849244753" lon="8.35143880699307"><ele>139.85714285714286</ele><time>2026-03-28T11:40:06Z</time></trkpt><trkpt lat="44.771077331003795" lon="8.351483728596225"><ele>139.71428571428572</ele><time>2026-03-28T11:40:11Z</time></trkpt><trkpt lat="44.77113639352287" lon="8.351528113093556"><ele>139.57142857142856</ele><time>2026-03-28T11:40:17Z</time></trkpt><trkpt lat="44.77118988681868" lon="8.351591981724509"><ele>139.42857142857144</ele><time>2026-03-28T11:40:26Z</time></trkpt><trkpt lat="44.771238748011406" lon="8.351650887557424"><ele>139.28571428571428</ele><time>2026-03-28T11:40:32Z</time></trkpt><trkpt lat="44.77129917715463" lon="8.351701437660541"><ele>139.14285714285714</ele><time>2026-03-28T11:40:37Z</time></trkpt><trkpt lat="44.77135099300347" lon="8.351768292261227"><ele>139.0</ele><time>2026-03-28T11:40:42Z</time></trkpt><trkpt lat="44.77140535978631" lon="8.35183447630002"><ele>139.0</ele><time>2026-03-28T11:40:47Z</time></trkpt><trkpt lat="44.77146032092543" lon="8.351894085505302"><ele>139.0</ele><time>2026-03-28T11:40:51.999Z</time></trkpt><trkpt lat="44.77152300900647" lon="8.351936514084144"><ele>139.0</ele><time>2026-03-28T11:40:57.999Z</time></trkpt><trkpt lat="44.771586209273025" lon="8.351988612976301"><ele>139.0</ele><time>2026-03-28T11:41:03.999Z</time></trkpt><trkpt lat="44.771649580979194" lon="8.352036483272974"><ele>139.0</ele><time>2026-03-28T11:41:10.999Z</time></trkpt><trkpt lat="44.77170837221893" lon="8.352076083944057"><ele>139.0</ele><time>2026-03-28T11:41:15.999Z</time></trkpt><trkpt lat="44.77176617470112" lon="8.352128992169376"><ele>139.0</ele><time>2026-03-28T11:41:21.999Z</time></trkpt><trkpt lat="44.77182410873122" lon="8.352182063417354"><ele>139.0</ele><time>2026-03-28T11:41:26.999Z</time></trkpt><trkpt lat="44.771879568788115" lon="8.352230425827472"><ele>139.0</ele><time>2026-03-28T11:41:33.999Z</time></trkpt><trkpt lat="44.77193891302411" lon="8.352287362658915"><ele>139.0</ele><time>2026-03-28T11:41:39.999Z</time></trkpt><trkpt lat="44.77200529664643" lon="8.352336761262872"><ele>139.0</ele><time>2026-03-28T11:41:45.999Z</time></trkpt><trkpt lat="44.772061120937344" lon="8.352378231404577"><ele>139.0</ele><time>2026-03-28T11:41:50.999Z</time></trkpt><trkpt lat="44.77211893119567" lon="8.352428873491112"><ele>139.0</ele><time>2026-03-28T11:42:05Z</time></trkpt><trkpt lat="44.77217050963692" lon="8.352486662590486"><ele>139.0</ele><time>2026-03-28T11:42:13Z</time></trkpt><trkpt lat="44.77221634337913" lon="8.3525671525272"><ele>139.0</ele><time>2026-03-28T11:42:18Z</time></trkpt><trkpt lat="44.772255236309086" lon="8.352653147006002"><ele>139.0</ele><time>2026-03-28T11:42:23Z</time></trkpt><trkpt lat="44.77227409827114" lon="8.352747844438788"><ele>139.0</ele><time>2026-03-28T11:42:28Z</time></trkpt><trkpt lat="44.7723406524222" lon="8.35277684247458"><ele>139.0</ele><time>2026-03-28T11:42:38Z</time></trkpt><trkpt lat="44.772392242486205" lon="8.352838647356366"><ele>139.0</ele><time>2026-03-28T11:42:43Z</time></trkpt><trkpt lat="44.77241774647878" lon="8.352922715375255"><ele>139.0</ele><time>2026-03-28T11:42:48Z</time></trkpt><trkpt lat="44.772474159096525" lon="8.352998003815497"><ele>139.0</ele><time>2026-03-28T11:42:52Z</time></trkpt><trkpt lat="44.772569531282194" lon="8.352983727865865"><ele>139.0</ele><time>2026-03-28T11:43:37.999Z</time></trkpt><trkpt lat="44.77265944518266" lon="8.352930640764496"><ele>139.0</ele><time>2026-03-28T11:43:51.999Z</time></trkpt><trkpt lat="44.77272031673707" lon="8.35287974578707"><ele>139.0</ele><time>2026-03-28T11:43:56.999Z</time></trkpt><trkpt lat="44.77276899587383" lon="8.352795796554897"><ele>139.0</ele><time>2026-03-28T11:43:59.999Z</time></trkpt><trkpt lat="44.77279840526425" lon="8.352714665198025"><ele>139.0</ele><time>2026-03-28T11:44:02.999Z</time></trkpt><trkpt lat="44.77288644424068" lon="8.35277675454858"><ele>139.0</ele><time>2026-03-28T11:44:28Z</time></trkpt><trkpt lat="44.77295112852613" lon="8.352795566614448"><ele>139.28571428571428</ele><time>2026-03-28T11:44:37Z</time></trkpt><trkpt lat="44.773021210854836" lon="8.352825525720911"><ele>139.57142857142858</ele><time>2026-03-28T11:44:43Z</time></trkpt><trkpt lat="44.77307982146627" lon="8.35285844475188"><ele>139.85714285714286</ele><time>2026-03-28T11:44:51Z</time></trkpt><trkpt lat="44.77312948066897" lon="8.352919153482677"><ele>140.14285714285714</ele><time>2026-03-28T11:44:57Z</time></trkpt><trkpt lat="44.77318113115821" lon="8.352981131001354"><ele>140.42857142857142</ele><time>2026-03-28T11:45:02Z</time></trkpt><trkpt lat="44.77319617089996" lon="8.353067926451427"><ele>140.71428571428572</ele><time>2026-03-28T11:45:08Z</time></trkpt><trkpt lat="44.773203927904724" lon="8.353164467501507"><ele>141.0</ele><time>2026-03-28T11:45:14.999Z</time></trkpt><trkpt lat="44.7732746166258" lon="8.353182240100143"><ele>141.0</ele><time>2026-03-28T11:45:25.999Z</time></trkpt><trkpt lat="44.773336898044285" lon="8.353152906462237"><ele>141.0</ele><time>2026-03-28T11:45:31.999Z</time></trkpt><trkpt lat="44.77341038185086" lon="8.353151096389112"><ele>141.0</ele><time>2026-03-28T11:45:37.999Z</time></trkpt><trkpt lat="44.77345892114958" lon="8.353207587136968"><ele>141.0</ele><time>2026-03-28T11:45:42.999Z</time></trkpt><trkpt lat="44.77349964051736" lon="8.353283620837152"><ele>141.0</ele><time>2026-03-28T11:45:49.999Z</time></trkpt><trkpt lat="44.77352930023048" lon="8.353378835834052"><ele>141.0</ele><time>2026-03-28T11:45:56.999Z</time></trkpt><trkpt lat="44.77355249540338" lon="8.353472660013603"><ele>141.0</ele><time>2026-03-28T11:46:04.999Z</time></trkpt><trkpt lat="44.77357973796578" lon="8.353564786160737"><ele>141.0</ele><time>2026-03-28T11:47:27.999Z</time></trkpt><trkpt lat="44.7735980069673" lon="8.353661902708607"><ele>141.0</ele><time>2026-03-28T11:47:35.999Z</time></trkpt><trkpt lat="44.773617802762416" lon="8.353746955815055"><ele>141.0</ele><time>2026-03-28T11:47:41.999Z</time></trkpt><trkpt lat="44.773642260813766" lon="8.353838394576112"><ele>141.0</ele><time>2026-03-28T11:47:48.999Z</time></trkpt><trkpt lat="44.77369420653115" lon="8.353891264720609"><ele>141.0</ele><time>2026-03-28T11:47:54.999Z</time></trkpt><trkpt lat="44.77376029842225" lon="8.353885029587298"><ele>141.0</ele><time>2026-03-28T11:48:00.999Z</time></trkpt><trkpt lat="44.773784254507476" lon="8.35397531655554"><ele>141.0</ele><time>2026-03-28T11:48:11.999Z</time></trkpt><trkpt lat="44.77380719149059" lon="8.35406582177537"><ele>141.0</ele><time>2026-03-28T11:48:18.999Z</time></trkpt><trkpt lat="44.773882766069704" lon="8.354105252487841"><ele>141.0</ele><time>2026-03-28T11:48:23Z</time></trkpt><trkpt lat="44.77388632973323" lon="8.354198560819482"><ele>141.0</ele><time>2026-03-28T11:48:28Z</time></trkpt><trkpt lat="44.77387947602838" lon="8.354296897404454"><ele>141.0</ele><time>2026-03-28T11:48:33Z</time></trkpt><trkpt lat="44.77390182310123" lon="8.354393320994266"><ele>141.0</ele><time>2026-03-28T11:48:38Z</time></trkpt><trkpt lat="44.77376860280424" lon="8.35421852050458"><ele>141.0</ele><time>2026-03-28T11:50:22.437Z</time></trkpt><trkpt lat="44.773738981942735" lon="8.354118041356964"><ele>141.0</ele><time>2026-03-28T11:50:29.072Z</time></trkpt><trkpt lat="44.773866743752095" lon="8.354297199886389"><ele>141.0</ele><time>2026-03-28T11:50:31.034Z</time></trkpt><trkpt lat="44.77388100036779" lon="8.354407358599794"><ele>141.0</ele><time>2026-03-28T11:50:32.999Z</time></trkpt><trkpt lat="44.77386923270573" lon="8.354505633112105"><ele>141.0</ele><time>2026-03-28T11:50:42Z</time></trkpt><trkpt lat="44.77388913084223" lon="8.354610928654889"><ele>141.57142857142858</ele><time>2026-03-28T11:50:47Z</time></trkpt><trkpt lat="44.77394274753512" lon="8.354715006707833"><ele>142.14285714285714</ele><time>2026-03-28T11:50:49Z</time></trkpt><trkpt lat="44.773977344680034" lon="8.354810577385951"><ele>142.71428571428572</ele><time>2026-03-28T11:50:54Z</time></trkpt><trkpt lat="44.77399300012552" lon="8.354911294314292"><ele>143.28571428571428</ele><time>2026-03-28T11:51:02Z</time></trkpt><trkpt lat="44.77401030360624" lon="8.355004708820944"><ele>143.85714285714286</ele><time>2026-03-28T11:51:07Z</time></trkpt><trkpt lat="44.774014617029124" lon="8.355094165794126"><ele>144.42857142857144</ele><time>2026-03-28T11:51:11Z</time></trkpt><trkpt lat="44.77403304772287" lon="8.355186478032262"><ele>145.0</ele><time>2026-03-28T11:51:16Z</time></trkpt><trkpt lat="44.774057066812325" lon="8.355287715616706"><ele>145.0</ele><time>2026-03-28T11:51:21Z</time></trkpt><trkpt lat="44.774070754656194" lon="8.355383916483166"><ele>145.0</ele><time>2026-03-28T11:51:26Z</time></trkpt><trkpt lat="44.774098020376954" lon="8.355473453505665"><ele>145.0</ele><time>2026-03-28T11:51:31Z</time></trkpt><trkpt lat="44.774131694455164" lon="8.35555301345611"><ele>145.0</ele><time>2026-03-28T11:51:37.999Z</time></trkpt><trkpt lat="44.774152890084714" lon="8.355640763423713"><ele>145.0</ele><time>2026-03-28T11:51:42.999Z</time></trkpt><trkpt lat="44.77415519983348" lon="8.355730908196964"><ele>145.0</ele><time>2026-03-28T11:51:46.999Z</time></trkpt><trkpt lat="44.77415277811567" lon="8.355842139514792"><ele>145.0</ele><time>2026-03-28T11:51:52.999Z</time></trkpt><trkpt lat="44.77415465199907" lon="8.355934602935678"><ele>145.0</ele><time>2026-03-28T11:51:58.999Z</time></trkpt><trkpt lat="44.77415294195521" lon="8.356038572911428"><ele>145.0</ele><time>2026-03-28T11:52:04.999Z</time></trkpt><trkpt lat="44.77419396423392" lon="8.35612727954144"><ele>145.0</ele><time>2026-03-28T11:52:09.999Z</time></trkpt><trkpt lat="44.77423787024256" lon="8.356210461507988"><ele>145.0</ele><time>2026-03-28T11:52:17.999Z</time></trkpt><trkpt lat="44.77430441446972" lon="8.356209653113478"><ele>145.0</ele><time>2026-03-28T11:52:22.999Z</time></trkpt><trkpt lat="44.774370234284625" lon="8.356196980917066"><ele>145.0</ele><time>2026-03-28T11:52:29.999Z</time></trkpt><trkpt lat="44.77443694026248" lon="8.356190804154283"><ele>145.0</ele><time>2026-03-28T11:52:38.999Z</time></trkpt><trkpt lat="44.77450501315088" lon="8.35622275678926"><ele>143.0</ele><time>2026-03-28T11:53:10Z</time></trkpt><trkpt lat="44.77447779799863" lon="8.356111552296175"><ele>143.0</ele><time>2026-03-28T11:53:40Z</time></trkpt><trkpt lat="44.774451662739246" lon="8.356030449738784"><ele>143.0</ele><time>2026-03-28T11:53:52.999Z</time></trkpt><trkpt lat="44.77448816754111" lon="8.356140130642872"><ele>143.0</ele><time>2026-03-28T11:54:12.999Z</time></trkpt><trkpt lat="44.774500147434" lon="8.356227277851007"><ele>143.0</ele><time>2026-03-28T11:54:18.999Z</time></trkpt></trkseg><trkseg><trkpt lat="44.77443595887205" lon="8.356209137216291"><ele>143.0</ele><time>2026-03-28T12:20:26.995Z</time></trkpt><trkpt lat="44.774370353590946" lon="8.356193527162976"><ele>143.0</ele><time>2026-03-28T12:20:34.997Z</time></trkpt><trkpt lat="44.774306609130804" lon="8.356201373123021"><ele>143.0</ele><time>2026-03-28T12:20:41.998Z</time></trkpt><trkpt lat="44.774253913491975" lon="8.356251670302061"><ele>143.0</ele><time>2026-03-28T12:20:46.999Z</time></trkpt><trkpt lat="44.774180085033954" lon="8.356279954184414"><ele>143.0</ele><time>2026-03-28T12:20:54.999Z</time></trkpt><trkpt lat="44.77411266203234" lon="8.356275610385447"><ele>143.0</ele><time>2026-03-28T12:20:59.999Z</time></trkpt><trkpt lat="44.773803352546246" lon="8.356503709114815"><ele>143.5</ele><time>2026-03-28T12:22:01Z</time></trkpt><trkpt lat="44.773728956788645" lon="8.356607202170377"><ele>144.0</ele><time>2026-03-28T12:22:42Z</time></trkpt><trkpt lat="44.77365222310208" lon="8.356542878102431"><ele>144.5</ele><time>2026-03-28T12:22:51Z</time></trkpt><trkpt lat="44.773587549857595" lon="8.356522556624"><ele>145.0</ele><time>2026-03-28T12:22:59Z</time></trkpt><trkpt lat="44.773617080870885" lon="8.355661927637994"><ele>145.0</ele><time>2026-03-28T12:24:01Z</time></trkpt><trkpt lat="44.77360401069363" lon="8.35557105663357"><ele>145.0</ele><time>2026-03-28T12:24:06Z</time></trkpt><trkpt lat="44.77357802636889" lon="8.355481589577646"><ele>145.0</ele><time>2026-03-28T12:24:13Z</time></trkpt><trkpt lat="44.77357335454977" lon="8.35537279191536"><ele>145.0</ele><time>2026-03-28T12:24:19Z</time></trkpt><trkpt lat="44.77353589170721" lon="8.355289479069679"><ele>145.0</ele><time>2026-03-28T12:24:24Z</time></trkpt><trkpt lat="44.773518024593045" lon="8.35518617437272"><ele>145.0</ele><time>2026-03-28T12:24:30Z</time></trkpt><trkpt lat="44.773504149728296" lon="8.355092610165583"><ele>145.0</ele><time>2026-03-28T12:24:37Z</time></trkpt><trkpt lat="44.77350108809199" lon="8.354991962269766"><ele>145.0</ele><time>2026-03-28T12:24:43Z</time></trkpt><trkpt lat="44.77349730681269" lon="8.354896109807957"><ele>145.0</ele><time>2026-03-28T12:24:49Z</time></trkpt><trkpt lat="44.77319601782886" lon="8.354618010547192"><ele>145.0</ele><time>2026-03-28T12:26:01Z</time></trkpt><trkpt lat="44.77313494426769" lon="8.354645556931464"><ele>145.0</ele><time>2026-03-28T12:26:08Z</time></trkpt><trkpt lat="44.77307320452062" lon="8.35468833834317"><ele>145.0</ele><time>2026-03-28T12:26:14Z</time></trkpt><trkpt lat="44.77300712108135" lon="8.354725389410833"><ele>145.0</ele><time>2026-03-28T12:26:20Z</time></trkpt><trkpt lat="44.772951520749274" lon="8.354767785786391"><ele>145.0</ele><time>2026-03-28T12:26:25Z</time></trkpt><trkpt lat="44.77289494262087" lon="8.354812417639044"><ele>145.0</ele><time>2026-03-28T12:26:32.001Z</time></trkpt><trkpt lat="44.77283887955044" lon="8.35485870338393"><ele>145.0</ele><time>2026-03-28T12:26:40.001Z</time></trkpt><trkpt lat="44.772775001215315" lon="8.354902023635217"><ele>145.0</ele><time>2026-03-28T12:26:46Z</time></trkpt><trkpt lat="44.77270463487188" lon="8.354947317923925"><ele>143.0</ele><time>2026-03-28T12:26:52Z</time></trkpt><trkpt lat="44.77263966333486" lon="8.35499781165432"><ele>141.0</ele><time>2026-03-28T12:26:58Z</time></trkpt><trkpt lat="44.77212050154337" lon="8.355486140123508"><ele>141.0</ele><time>2026-03-28T12:28:01Z</time></trkpt><trkpt lat="44.77205618531162" lon="8.355493008062929"><ele>141.0</ele><time>2026-03-28T12:28:12Z</time></trkpt><trkpt lat="44.772009567402606" lon="8.355552834467009"><ele>141.0</ele><time>2026-03-28T12:28:16Z</time></trkpt><trkpt lat="44.77194141459415" lon="8.355594024768418"><ele>141.0</ele><time>2026-03-28T12:28:21Z</time></trkpt><trkpt lat="44.7718849877857" lon="8.355642913805488"><ele>141.0</ele><time>2026-03-28T12:28:29Z</time></trkpt><trkpt lat="44.77183075806532" lon="8.35570625993094"><ele>141.0</ele><time>2026-03-28T12:28:34Z</time></trkpt><trkpt lat="44.77177442489041" lon="8.355762236133925"><ele>141.0</ele><time>2026-03-28T12:28:40.001Z</time></trkpt><trkpt lat="44.77171382077702" lon="8.355812275850763"><ele>140.33333333333334</ele><time>2026-03-28T12:28:46.001Z</time></trkpt><trkpt lat="44.77164957711637" lon="8.355831479384804"><ele>139.66666666666669</ele><time>2026-03-28T12:28:51Z</time></trkpt><trkpt lat="44.771578179519075" lon="8.355846835513999"><ele>139.0</ele><time>2026-03-28T12:28:56Z</time></trkpt><trkpt lat="44.77093975342707" lon="8.355477129381748"><ele>139.0</ele><time>2026-03-28T12:30:01Z</time></trkpt><trkpt lat="44.770877696525176" lon="8.355444961795271"><ele>139.0</ele><time>2026-03-28T12:30:09Z</time></trkpt><trkpt lat="44.77081897259444" lon="8.35539535112488"><ele>139.0</ele><time>2026-03-28T12:30:17Z</time></trkpt><trkpt lat="44.77075703899892" lon="8.355354742478234"><ele>139.0</ele><time>2026-03-28T12:30:36Z</time></trkpt><trkpt lat="44.77069806592551" lon="8.35529970265259"><ele>139.0</ele><time>2026-03-28T12:30:44.001Z</time></trkpt><trkpt lat="44.770653227368385" lon="8.355221600534266"><ele>139.0</ele><time>2026-03-28T12:30:52.001Z</time></trkpt><trkpt lat="44.77055498242676" lon="8.35434476814221"><ele>138.71428571428572</ele><time>2026-03-28T12:32:01Z</time></trkpt><trkpt lat="44.770565810459416" lon="8.354256414974957"><ele>138.42857142857144</ele><time>2026-03-28T12:32:08Z</time></trkpt><trkpt lat="44.77057912334956" lon="8.354169298392165"><ele>138.14285714285717</ele><time>2026-03-28T12:32:14Z</time></trkpt><trkpt lat="44.770605962417875" lon="8.354067688415414"><ele>137.85714285714286</ele><time>2026-03-28T12:32:20Z</time></trkpt><trkpt lat="44.770631089926475" lon="8.35397745785504"><ele>137.57142857142858</ele><time>2026-03-28T12:32:26Z</time></trkpt><trkpt lat="44.77065404548027" lon="8.353892251790738"><ele>137.2857142857143</ele><time>2026-03-28T12:32:32Z</time></trkpt><trkpt lat="44.770678465018854" lon="8.35379877529784"><ele>137.0</ele><time>2026-03-28T12:32:39Z</time></trkpt><trkpt lat="44.770709125363524" lon="8.353707145919563"><ele>137.0</ele><time>2026-03-28T12:32:51Z</time></trkpt><trkpt lat="44.7707246226627" lon="8.353598815506066"><ele>137.0</ele><time>2026-03-28T12:32:56Z</time></trkpt><trkpt lat="44.77083288337769" lon="8.352797493120567"><ele>137.42857142857144</ele><time>2026-03-28T12:34:01Z</time></trkpt><trkpt lat="44.770835421258354" lon="8.352706991810358"><ele>137.85714285714286</ele><time>2026-03-28T12:34:08Z</time></trkpt><trkpt lat="44.77084026598779" lon="8.352606338598514"><ele>138.28571428571428</ele><time>2026-03-28T12:34:15Z</time></trkpt><trkpt lat="44.770844968760116" lon="8.35250105739874"><ele>138.71428571428572</ele><time>2026-03-28T12:34:21Z</time></trkpt><trkpt lat="44.77085004887522" lon="8.352399579452596"><ele>139.14285714285714</ele><time>2026-03-28T12:34:27Z</time></trkpt><trkpt lat="44.770868363563544" lon="8.352306745711008"><ele>139.57142857142858</ele><time>2026-03-28T12:34:40.999Z</time></trkpt><trkpt lat="44.770857288550076" lon="8.352212732488175"><ele>140.0</ele><time>2026-03-28T12:34:48.999Z</time></trkpt><trkpt lat="44.770852813883984" lon="8.352120619495288"><ele>140.0</ele><time>2026-03-28T12:34:54Z</time></trkpt><trkpt lat="44.77084826920403" lon="8.352027052236878"><ele>140.0</ele><time>2026-03-28T12:35:00Z</time></trkpt><trkpt lat="44.77081966261817" lon="8.35104212832615"><ele>140.0</ele><time>2026-03-28T12:36:01Z</time></trkpt><trkpt lat="44.77080743233548" lon="8.3509519514777"><ele>140.0</ele><time>2026-03-28T12:36:07Z</time></trkpt><trkpt lat="44.770789467476554" lon="8.350856285896125"><ele>140.0</ele><time>2026-03-28T12:36:13Z</time></trkpt><trkpt lat="44.770774122109636" lon="8.350768554703667"><ele>140.0</ele><time>2026-03-28T12:36:19Z</time></trkpt><trkpt lat="44.77076297842149" lon="8.350670446436197"><ele>140.0</ele><time>2026-03-28T12:36:25Z</time></trkpt><trkpt lat="44.770744748680514" lon="8.350584163691499"><ele>140.0</ele><time>2026-03-28T12:36:31Z</time></trkpt><trkpt lat="44.77071547969823" lon="8.350488514062498"><ele>140.0</ele><time>2026-03-28T12:36:37.999Z</time></trkpt><trkpt lat="44.770695940444085" lon="8.350395065032561"><ele>140.0</ele><time>2026-03-28T12:36:48.999Z</time></trkpt><trkpt lat="44.77067071836085" lon="8.350305471165633"><ele>140.0</ele><time>2026-03-28T12:36:54.999Z</time></trkpt><trkpt lat="44.77043060414427" lon="8.349664073636937"><ele>140.0</ele><time>2026-03-28T12:38:01Z</time></trkpt><trkpt lat="44.770404441077225" lon="8.349571299126366"><ele>140.0</ele><time>2026-03-28T12:40:15.999Z</time></trkpt><trkpt lat="44.77036690639004" lon="8.349490215361534"><ele>140.0</ele><time>2026-03-28T12:40:22.999Z</time></trkpt><trkpt lat="44.77031711616855" lon="8.349414357010446"><ele>140.0</ele><time>2026-03-28T12:40:29.999Z</time></trkpt><trkpt lat="44.770273409684464" lon="8.34933544621333"><ele>140.0</ele><time>2026-03-28T12:40:35.999Z</time></trkpt><trkpt lat="44.77022322392735" lon="8.349259465540097"><ele>140.0</ele><time>2026-03-28T12:40:41.999Z</time></trkpt><trkpt lat="44.76990299779296" lon="8.35018397308678"><ele>139.71428571428572</ele><time>2026-03-28T12:44:01Z</time></trkpt><trkpt lat="44.769841240397604" lon="8.350126347877879"><ele>139.42857142857144</ele><time>2026-03-28T12:44:16Z</time></trkpt><trkpt lat="44.76978677750307" lon="8.350054221845136"><ele>139.14285714285714</ele><time>2026-03-28T12:44:22.999Z</time></trkpt><trkpt lat="44.76974566261206" lon="8.349978384565645"><ele>138.85714285714286</ele><time>2026-03-28T12:44:28.999Z</time></trkpt><trkpt lat="44.769703981532444" lon="8.349896188038663"><ele>138.57142857142858</ele><time>2026-03-28T12:44:34.999Z</time></trkpt><trkpt lat="44.76966150213321" lon="8.349810523249086"><ele>138.28571428571428</ele><time>2026-03-28T12:44:40.999Z</time></trkpt><trkpt lat="44.769622070587786" lon="8.349731069237958"><ele>138.0</ele><time>2026-03-28T12:44:46.999Z</time></trkpt><trkpt lat="44.76957517692879" lon="8.349652545506435"><ele>138.0</ele><time>2026-03-28T12:44:52.999Z</time></trkpt><trkpt lat="44.769546942383755" lon="8.349566710190091"><ele>138.0</ele><time>2026-03-28T12:44:58.999Z</time></trkpt><trkpt lat="44.76891538880856" lon="8.349006912687464"><ele>137.85714285714286</ele><time>2026-03-28T12:46:01Z</time></trkpt><trkpt lat="44.76885619874232" lon="8.348952920077664"><ele>137.71428571428572</ele><time>2026-03-28T12:46:07Z</time></trkpt><trkpt lat="44.76881787169027" lon="8.348866966151705"><ele>137.57142857142858</ele><time>2026-03-28T12:46:21.999Z</time></trkpt><trkpt lat="44.76873777459486" lon="8.348887978097471"><ele>137.42857142857144</ele><time>2026-03-28T12:46:26.999Z</time></trkpt><trkpt lat="44.768668371920846" lon="8.348866335768252"><ele>137.28571428571428</ele><time>2026-03-28T12:46:28.999Z</time></trkpt><trkpt lat="44.768596597429735" lon="8.348836826530851"><ele>137.14285714285717</ele><time>2026-03-28T12:46:32.999Z</time></trkpt><trkpt lat="44.76852899262244" lon="8.348800909939346"><ele>137.0</ele><time>2026-03-28T12:46:37.999Z</time></trkpt><trkpt lat="44.7684672948475" lon="8.34877806589765"><ele>136.5</ele><time>2026-03-28T12:46:42.999Z</time></trkpt><trkpt lat="44.768405015352684" lon="8.348750374867285"><ele>136.0</ele><time>2026-03-28T12:46:47.999Z</time></trkpt><trkpt lat="44.7683384174607" lon="8.348729151752249"><ele>135.5</ele><time>2026-03-28T12:46:52.999Z</time></trkpt><trkpt lat="44.76827260768176" lon="8.348710168392396"><ele>135.0</ele><time>2026-03-28T12:46:57.999Z</time></trkpt><trkpt lat="44.76762074431947" lon="8.348551408586763"><ele>135.0</ele><time>2026-03-28T12:48:01Z</time></trkpt><trkpt lat="44.76755120565032" lon="8.348527781025355"><ele>135.0</ele><time>2026-03-28T12:48:06.999Z</time></trkpt><trkpt lat="44.767485995835415" lon="8.348516770620583"><ele>135.0</ele><time>2026-03-28T12:48:11.999Z</time></trkpt><trkpt lat="44.76741434881812" lon="8.348493411646977"><ele>135.0</ele><time>2026-03-28T12:48:17.999Z</time></trkpt><trkpt lat="44.7673512406428" lon="8.348483694913057"><ele>135.0</ele><time>2026-03-28T12:48:22.999Z</time></trkpt><trkpt lat="44.76728873102409" lon="8.348467335144457"><ele>135.0</ele><time>2026-03-28T12:48:27.999Z</time></trkpt><trkpt lat="44.76722470081002" lon="8.348445072229715"><ele>135.0</ele><time>2026-03-28T12:48:34.999Z</time></trkpt><trkpt lat="44.767157599412975" lon="8.348430620133216"><ele>135.0</ele><time>2026-03-28T12:48:40.999Z</time></trkpt><trkpt lat="44.76709211222195" lon="8.348414426623574"><ele>135.0</ele><time>2026-03-28T12:48:45.999Z</time></trkpt><trkpt lat="44.76702897020469" lon="8.348395157170195"><ele>135.0</ele><time>2026-03-28T12:48:50.999Z</time></trkpt><trkpt lat="44.7669616870439" lon="8.348379204309769"><ele>135.0</ele><time>2026-03-28T12:48:55.999Z</time></trkpt><trkpt lat="44.76619356626456" lon="8.348121734238335"><ele>135.28571428571428</ele><time>2026-03-28T12:50:01Z</time></trkpt><trkpt lat="44.76612771171617" lon="8.348089057492835"><ele>135.57142857142856</ele><time>2026-03-28T12:50:07Z</time></trkpt><trkpt lat="44.76606382259842" lon="8.348058373298455"><ele>135.85714285714286</ele><time>2026-03-28T12:50:13Z</time></trkpt><trkpt lat="44.76599452085187" lon="8.34802304784664"><ele>136.14285714285714</ele><time>2026-03-28T12:50:19Z</time></trkpt><trkpt lat="44.765926789055534" lon="8.347989656626073"><ele>136.42857142857144</ele><time>2026-03-28T12:50:24.999Z</time></trkpt><trkpt lat="44.76586377893348" lon="8.347971930165201"><ele>136.71428571428572</ele><time>2026-03-28T12:50:29.999Z</time></trkpt><trkpt lat="44.76580260684252" lon="8.347948508251887"><ele>137.0</ele><time>2026-03-28T12:50:34.999Z</time></trkpt><trkpt lat="44.76573205852049" lon="8.34792885103088"><ele>137.25</ele><time>2026-03-28T12:50:40.999Z</time></trkpt><trkpt lat="44.76566379380437" lon="8.347902396447113"><ele>137.5</ele><time>2026-03-28T12:50:46.999Z</time></trkpt><trkpt lat="44.76559623732577" lon="8.3478830249396"><ele>137.75</ele><time>2026-03-28T12:50:52.999Z</time></trkpt><trkpt lat="44.765526267916464" lon="8.347853743464604"><ele>138.0</ele><time>2026-03-28T12:50:58.999Z</time></trkpt><trkpt lat="44.76488223952864" lon="8.347549299920157"><ele>137.71428571428572</ele><time>2026-03-28T12:52:01Z</time></trkpt><trkpt lat="44.764821470174894" lon="8.34751996841487"><ele>137.42857142857144</ele><time>2026-03-28T12:52:06Z</time></trkpt><trkpt lat="44.764755815893466" lon="8.347478436680714"><ele>137.14285714285714</ele><time>2026-03-28T12:52:12Z</time></trkpt><trkpt lat="44.7646961197806" lon="8.347444088020254"><ele>136.85714285714286</ele><time>2026-03-28T12:52:17Z</time></trkpt><trkpt lat="44.76463890380913" lon="8.34740514192285"><ele>136.57142857142856</ele><time>2026-03-28T12:52:22Z</time></trkpt><trkpt lat="44.7645754862852" lon="8.347354503967344"><ele>136.28571428571428</ele><time>2026-03-28T12:52:28Z</time></trkpt><trkpt lat="44.76451933257039" lon="8.347306325480846"><ele>136.0</ele><time>2026-03-28T12:52:32.999Z</time></trkpt><trkpt lat="44.764456143707726" lon="8.347256876618347"><ele>135.8</ele><time>2026-03-28T12:52:38.999Z</time></trkpt><trkpt lat="44.76440002986397" lon="8.347203367878757"><ele>135.6</ele><time>2026-03-28T12:52:43.999Z</time></trkpt><trkpt lat="44.76434449024622" lon="8.347158018170994"><ele>135.4</ele><time>2026-03-28T12:52:48.999Z</time></trkpt><trkpt lat="44.764286781217045" lon="8.347103487290667"><ele>135.2</ele><time>2026-03-28T12:52:54.999Z</time></trkpt><trkpt lat="44.764231246842634" lon="8.34705237054108"><ele>135.0</ele><time>2026-03-28T12:52:59.999Z</time></trkpt><trkpt lat="44.76371939647933" lon="8.346352441888596"><ele>135.57142857142856</ele><time>2026-03-28T12:54:01Z</time></trkpt><trkpt lat="44.763657600921746" lon="8.34630648112034"><ele>136.14285714285714</ele><time>2026-03-28T12:54:07Z</time></trkpt><trkpt lat="44.76359411848041" lon="8.346260257179088"><ele>136.71428571428572</ele><time>2026-03-28T12:54:12Z</time></trkpt><trkpt lat="44.7635315459885" lon="8.346214631452657"><ele>137.28571428571428</ele><time>2026-03-28T12:54:18Z</time></trkpt><trkpt lat="44.76346756036276" lon="8.34617349562972"><ele>137.85714285714286</ele><time>2026-03-28T12:54:24Z</time></trkpt><trkpt lat="44.76340568502471" lon="8.346139468709067"><ele>138.42857142857142</ele><time>2026-03-28T12:54:30Z</time></trkpt><trkpt lat="44.76334228188851" lon="8.346106634119517"><ele>139.0</ele><time>2026-03-28T12:54:36Z</time></trkpt><trkpt lat="44.763277986993344" lon="8.346046473675733"><ele>139.0</ele><time>2026-03-28T12:54:43Z</time></trkpt><trkpt lat="44.76322152667105" lon="8.34599047295977"><ele>139.0</ele><time>2026-03-28T12:54:49.999Z</time></trkpt><trkpt lat="44.763163537407266" lon="8.345935850454081"><ele>139.0</ele><time>2026-03-28T12:54:56.999Z</time></trkpt><trkpt lat="44.76252502451345" lon="8.345288131263368"><ele>139.14285714285714</ele><time>2026-03-28T12:56:01Z</time></trkpt><trkpt lat="44.762459161581106" lon="8.345255867729664"><ele>139.28571428571428</ele><time>2026-03-28T12:56:07Z</time></trkpt><trkpt lat="44.76240036876162" lon="8.345198975756531"><ele>139.42857142857144</ele><time>2026-03-28T12:56:12Z</time></trkpt><trkpt lat="44.762344208551035" lon="8.345155854924116"><ele>139.57142857142856</ele><time>2026-03-28T12:56:17Z</time></trkpt><trkpt lat="44.76228408809403" lon="8.345106859388036"><ele>139.71428571428572</ele><time>2026-03-28T12:56:23Z</time></trkpt><trkpt lat="44.76222120099522" lon="8.34506641338008"><ele>139.85714285714286</ele><time>2026-03-28T12:56:28Z</time></trkpt><trkpt lat="44.76215307911775" lon="8.345030244262562"><ele>140.0</ele><time>2026-03-28T12:56:34Z</time></trkpt><trkpt lat="44.762094575891" lon="8.34499715248559"><ele>140.0</ele><time>2026-03-28T12:56:40Z</time></trkpt><trkpt lat="44.762025495206466" lon="8.344955901617078"><ele>140.0</ele><time>2026-03-28T12:56:46Z</time></trkpt><trkpt lat="44.76196018756708" lon="8.344925334952832"><ele>140.0</ele><time>2026-03-28T12:56:51Z</time></trkpt><trkpt lat="44.761891647819546" lon="8.344892668018144"><ele>140.0</ele><time>2026-03-28T12:56:56Z</time></trkpt><trkpt lat="44.76119600320142" lon="8.345397597653681"><ele>140.14285714285714</ele><time>2026-03-28T12:58:01Z</time></trkpt><trkpt lat="44.76112047408176" lon="8.345415622338406"><ele>140.28571428571428</ele><time>2026-03-28T12:58:07Z</time></trkpt><trkpt lat="44.76104760358567" lon="8.345420038963628"><ele>140.42857142857144</ele><time>2026-03-28T12:58:13Z</time></trkpt><trkpt lat="44.760973349375504" lon="8.34540672625965"><ele>140.57142857142856</ele><time>2026-03-28T12:58:19Z</time></trkpt><trkpt lat="44.76090531096271" lon="8.34539215873515"><ele>140.71428571428572</ele><time>2026-03-28T12:58:25Z</time></trkpt><trkpt lat="44.760836865581325" lon="8.345371123575562"><ele>140.85714285714286</ele><time>2026-03-28T12:58:31Z</time></trkpt><trkpt lat="44.7607618339807" lon="8.345344888349226"><ele>141.0</ele><time>2026-03-28T12:58:37Z</time></trkpt><trkpt lat="44.76069078673867" lon="8.345323320782011"><ele>140.33333333333334</ele><time>2026-03-28T12:58:43Z</time></trkpt><trkpt lat="44.7606177863072" lon="8.34530078130283"><ele>139.66666666666669</ele><time>2026-03-28T12:58:49Z</time></trkpt><trkpt lat="44.7605464569279" lon="8.345275328092788"><ele>139.0</ele><time>2026-03-28T12:58:55Z</time></trkpt><trkpt lat="44.75973450161279" lon="8.345116630444883"><ele>139.0</ele><time>2026-03-28T13:00:00.999Z</time></trkpt><trkpt lat="44.75967149474685" lon="8.34509793761913"><ele>139.0</ele><time>2026-03-28T13:00:06Z</time></trkpt><trkpt lat="44.75960838734512" lon="8.345084278011038"><ele>139.0</ele><time>2026-03-28T13:00:11Z</time></trkpt><trkpt lat="44.75954332460473" lon="8.345071501040595"><ele>139.0</ele><time>2026-03-28T13:00:16Z</time></trkpt><trkpt lat="44.759470148958194" lon="8.345056307232209"><ele>139.0</ele><time>2026-03-28T13:00:22Z</time></trkpt><trkpt lat="44.75939776523853" lon="8.345045373809452"><ele>139.0</ele><time>2026-03-28T13:00:28Z</time></trkpt><trkpt lat="44.75932841450301" lon="8.345048212180098"><ele>139.0</ele><time>2026-03-28T13:00:33Z</time></trkpt><trkpt lat="44.75926513036106" lon="8.345052437972065"><ele>138.75</ele><time>2026-03-28T13:00:38Z</time></trkpt><trkpt lat="44.7591919881343" lon="8.345059001904783"><ele>138.5</ele><time>2026-03-28T13:00:44Z</time></trkpt><trkpt lat="44.759117118536714" lon="8.345069409999269"><ele>138.25</ele><time>2026-03-28T13:00:51Z</time></trkpt><trkpt lat="44.75904889364125" lon="8.345081627184118"><ele>138.0</ele><time>2026-03-28T13:00:57Z</time></trkpt><trkpt lat="44.75832394143309" lon="8.345166685292387"><ele>138.28571428571428</ele><time>2026-03-28T13:02:00.999Z</time></trkpt><trkpt lat="44.758247081657196" lon="8.34518244365473"><ele>138.57142857142858</ele><time>2026-03-28T13:02:06.999Z</time></trkpt><trkpt lat="44.75817449156264" lon="8.345191827035245"><ele>138.85714285714286</ele><time>2026-03-28T13:02:13Z</time></trkpt><trkpt lat="44.75810969875609" lon="8.345206468401035"><ele>139.14285714285714</ele><time>2026-03-28T13:02:18Z</time></trkpt><trkpt lat="44.75803697652983" lon="8.345215599765462"><ele>139.42857142857144</ele><time>2026-03-28T13:02:24Z</time></trkpt><trkpt lat="44.757966585341855" lon="8.345227460665487"><ele>139.71428571428572</ele><time>2026-03-28T13:02:30Z</time></trkpt><trkpt lat="44.75789122397325" lon="8.345228269607093"><ele>140.0</ele><time>2026-03-28T13:02:36Z</time></trkpt><trkpt lat="44.75782763108958" lon="8.345233243366016"><ele>140.0</ele><time>2026-03-28T13:02:41Z</time></trkpt><trkpt lat="44.75775462728793" lon="8.34525439668466"><ele>140.0</ele><time>2026-03-28T13:02:47Z</time></trkpt><trkpt lat="44.75768460521538" lon="8.345241983145684"><ele>140.0</ele><time>2026-03-28T13:02:53Z</time></trkpt><trkpt lat="44.75761279026302" lon="8.345239475405535"><ele>140.0</ele><time>2026-03-28T13:02:59Z</time></trkpt><trkpt lat="44.756863086245545" lon="8.345268823231008"><ele>140.14285714285714</ele><time>2026-03-28T13:04:00.999Z</time></trkpt><trkpt lat="44.756795454265195" lon="8.345267618773171"><ele>140.28571428571428</ele><time>2026-03-28T13:04:05.999Z</time></trkpt><trkpt lat="44.756730489724546" lon="8.345272074283328"><ele>140.42857142857144</ele><time>2026-03-28T13:04:11.999Z</time></trkpt><trkpt lat="44.75666012521583" lon="8.345284036905054"><ele>140.57142857142856</ele><time>2026-03-28T13:04:18Z</time></trkpt><trkpt lat="44.756592310370685" lon="8.34529850704409"><ele>140.71428571428572</ele><time>2026-03-28T13:04:24Z</time></trkpt><trkpt lat="44.75651825161861" lon="8.345320890869688"><ele>140.85714285714286</ele><time>2026-03-28T13:04:30Z</time></trkpt><trkpt lat="44.75645681986742" lon="8.345350120604964"><ele>141.0</ele><time>2026-03-28T13:04:36Z</time></trkpt><trkpt lat="44.756396549542806" lon="8.34537662386117"><ele>141.0</ele><time>2026-03-28T13:04:42Z</time></trkpt><trkpt lat="44.75633596701069" lon="8.345413868556117"><ele>141.0</ele><time>2026-03-28T13:04:48Z</time></trkpt><trkpt lat="44.75627801395793" lon="8.345464754049106"><ele>141.0</ele><time>2026-03-28T13:04:54Z</time></trkpt><trkpt lat="44.75622034316468" lon="8.34551702196562"><ele>141.0</ele><time>2026-03-28T13:05:00Z</time></trkpt><trkpt lat="44.75563492082048" lon="8.345985854383397"><ele>140.85714285714286</ele><time>2026-03-28T13:06:00.999Z</time></trkpt><trkpt lat="44.75557228814884" lon="8.346019707890507"><ele>140.71428571428572</ele><time>2026-03-28T13:06:11.999Z</time></trkpt><trkpt lat="44.75550086609513" lon="8.346048442509463"><ele>140.57142857142856</ele><time>2026-03-28T13:06:16.999Z</time></trkpt><trkpt lat="44.75542720836961" lon="8.34607732126247"><ele>140.42857142857144</ele><time>2026-03-28T13:06:23Z</time></trkpt><trkpt lat="44.7553571825346" lon="8.346095237654174"><ele>140.28571428571428</ele><time>2026-03-28T13:06:29Z</time></trkpt><trkpt lat="44.75528690222741" lon="8.346111556544624"><ele>140.14285714285714</ele><time>2026-03-28T13:06:35Z</time></trkpt><trkpt lat="44.755225292120194" lon="8.346132767038286"><ele>140.0</ele><time>2026-03-28T13:06:41Z</time></trkpt><trkpt lat="44.75515343576072" lon="8.346158488887529"><ele>141.0</ele><time>2026-03-28T13:06:47Z</time></trkpt><trkpt lat="44.75508192734363" lon="8.34616538378967"><ele>142.0</ele><time>2026-03-28T13:06:53Z</time></trkpt><trkpt lat="44.75501833516616" lon="8.346183230728311"><ele>143.0</ele><time>2026-03-28T13:06:58Z</time></trkpt><trkpt lat="44.754334414628666" lon="8.345805785725103"><ele>143.14285714285714</ele><time>2026-03-28T13:08:00.999Z</time></trkpt><trkpt lat="44.75426865533133" lon="8.345760481905392"><ele>143.28571428571428</ele><time>2026-03-28T13:08:06.999Z</time></trkpt><trkpt lat="44.75420216043976" lon="8.345713072596952"><ele>143.42857142857144</ele><time>2026-03-28T13:08:12.999Z</time></trkpt><trkpt lat="44.75414450316959" lon="8.34567211373404"><ele>143.57142857142856</ele><time>2026-03-28T13:08:17.999Z</time></trkpt><trkpt lat="44.754079302207806" lon="8.345619448385076"><ele>143.71428571428572</ele><time>2026-03-28T13:08:23.999Z</time></trkpt><trkpt lat="44.75400792498117" lon="8.345580795719936"><ele>143.85714285714286</ele><time>2026-03-28T13:08:30Z</time></trkpt><trkpt lat="44.75393885279588" lon="8.3455363609959"><ele>144.0</ele><time>2026-03-28T13:08:36Z</time></trkpt><trkpt lat="44.75387752688752" lon="8.345481844582922"><ele>144.0</ele><time>2026-03-28T13:08:42Z</time></trkpt><trkpt lat="44.753812927144615" lon="8.345434158739657"><ele>144.0</ele><time>2026-03-28T13:08:48Z</time></trkpt><trkpt lat="44.75374577314723" lon="8.345388630579077"><ele>144.0</ele><time>2026-03-28T13:08:54Z</time></trkpt><trkpt lat="44.7536839342479" lon="8.345336437675002"><ele>144.0</ele><time>2026-03-28T13:09:00Z</time></trkpt><trkpt lat="44.75304567136809" lon="8.344881810133522"><ele>143.71428571428572</ele><time>2026-03-28T13:10:00.999Z</time></trkpt><trkpt lat="44.75298097444144" lon="8.344836044899749"><ele>143.42857142857144</ele><time>2026-03-28T13:10:06.999Z</time></trkpt><trkpt lat="44.75292108053079" lon="8.344797375187886"><ele>143.14285714285714</ele><time>2026-03-28T13:10:12.999Z</time></trkpt><trkpt lat="44.752860813204194" lon="8.344756601140212"><ele>142.85714285714286</ele><time>2026-03-28T13:10:18.999Z</time></trkpt><trkpt lat="44.75279930716026" lon="8.344708508610289"><ele>142.57142857142856</ele><time>2026-03-28T13:10:24.999Z</time></trkpt><trkpt lat="44.75274199182608" lon="8.344659418710247"><ele>142.28571428571428</ele><time>2026-03-28T13:10:30.999Z</time></trkpt><trkpt lat="44.75268616995341" lon="8.34460637509391"><ele>142.0</ele><time>2026-03-28T13:10:38Z</time></trkpt><trkpt lat="44.752624236507344" lon="8.344546765141315"><ele>142.0</ele><time>2026-03-28T13:10:44Z</time></trkpt><trkpt lat="44.75255797097361" lon="8.34450267543348"><ele>142.0</ele><time>2026-03-28T13:10:50Z</time></trkpt><trkpt lat="44.75249306337482" lon="8.344455638043058"><ele>142.0</ele><time>2026-03-28T13:10:56Z</time></trkpt><trkpt lat="44.75182127627133" lon="8.343964000570438"><ele>142.0</ele><time>2026-03-28T13:12:00.999Z</time></trkpt><trkpt lat="44.75175761652994" lon="8.343916725699184"><ele>142.0</ele><time>2026-03-28T13:12:06.999Z</time></trkpt><trkpt lat="44.751698603163774" lon="8.343873273484013"><ele>142.0</ele><time>2026-03-28T13:12:12.999Z</time></trkpt><trkpt lat="44.75163230790232" lon="8.343830649911288"><ele>142.0</ele><time>2026-03-28T13:12:18.999Z</time></trkpt><trkpt lat="44.75157071746081" lon="8.343782264426176"><ele>142.0</ele><time>2026-03-28T13:12:24.999Z</time></trkpt><trkpt lat="44.751509613270834" lon="8.343738279230699"><ele>142.0</ele><time>2026-03-28T13:12:30.999Z</time></trkpt><trkpt lat="44.75145080018421" lon="8.34369985419886"><ele>142.0</ele><time>2026-03-28T13:12:36.999Z</time></trkpt><trkpt lat="44.75139060594287" lon="8.343655099778537"><ele>142.0</ele><time>2026-03-28T13:12:43Z</time></trkpt><trkpt lat="44.75133274018109" lon="8.343611970150079"><ele>142.0</ele><time>2026-03-28T13:12:49Z</time></trkpt><trkpt lat="44.751268591818125" lon="8.343569453151057"><ele>142.0</ele><time>2026-03-28T13:12:55Z</time></trkpt><trkpt lat="44.75059442436606" lon="8.343099588352231"><ele>142.0</ele><time>2026-03-28T13:14:00.999Z</time></trkpt><trkpt lat="44.75054108089064" lon="8.343050406155099"><ele>142.0</ele><time>2026-03-28T13:14:05.999Z</time></trkpt><trkpt lat="44.750477121047346" lon="8.343007783224925"><ele>142.0</ele><time>2026-03-28T13:14:11.999Z</time></trkpt><trkpt lat="44.75041701379577" lon="8.342971261021134"><ele>142.0</ele><time>2026-03-28T13:14:16.999Z</time></trkpt><trkpt lat="44.750349549901465" lon="8.342921569120593"><ele>142.0</ele><time>2026-03-28T13:14:22.999Z</time></trkpt><trkpt lat="44.7502926574862" lon="8.342875612496632"><ele>142.0</ele><time>2026-03-28T13:14:27.999Z</time></trkpt><trkpt lat="44.75022944976767" lon="8.342833810656993"><ele>142.0</ele><time>2026-03-28T13:14:33.999Z</time></trkpt><trkpt lat="44.750162574930854" lon="8.342793735043209"><ele>142.5</ele><time>2026-03-28T13:14:39.999Z</time></trkpt><trkpt lat="44.75010469172715" lon="8.342752649239934"><ele>143.0</ele><time>2026-03-28T13:14:46Z</time></trkpt><trkpt lat="44.7500435553863" lon="8.342710518971154"><ele>143.5</ele><time>2026-03-28T13:14:52Z</time></trkpt><trkpt lat="44.74998676140937" lon="8.342663173401249"><ele>144.0</ele><time>2026-03-28T13:14:58Z</time></trkpt><trkpt lat="44.7492961297941" lon="8.34215132708121"><ele>144.00000000000003</ele><time>2026-03-28T13:16:00.999Z</time></trkpt><trkpt lat="44.749237554847376" lon="8.342091866540043"><ele>144.0</ele><time>2026-03-28T13:16:06.999Z</time></trkpt><trkpt lat="44.74917551398536" lon="8.342040463220854"><ele>144.0</ele><time>2026-03-28T13:16:13.999Z</time></trkpt><trkpt lat="44.74911656320501" lon="8.341998698250494"><ele>144.0</ele><time>2026-03-28T13:16:23.999Z</time></trkpt><trkpt lat="44.7490558176652" lon="8.341964181522389"><ele>144.0</ele><time>2026-03-28T13:16:29.999Z</time></trkpt><trkpt lat="44.74899382148477" lon="8.341907844640565"><ele>144.00000000000003</ele><time>2026-03-28T13:16:35.999Z</time></trkpt><trkpt lat="44.74893407427246" lon="8.341866232601513"><ele>144.0</ele><time>2026-03-28T13:16:41.999Z</time></trkpt><trkpt lat="44.74888170964261" lon="8.341813308855448"><ele>144.0</ele><time>2026-03-28T13:16:47.999Z</time></trkpt><trkpt lat="44.748819750272524" lon="8.341774827665738"><ele>144.0</ele><time>2026-03-28T13:16:54Z</time></trkpt><trkpt lat="44.748763402609654" lon="8.341732291694639"><ele>144.0</ele><time>2026-03-28T13:17:00Z</time></trkpt><trkpt lat="44.74813943102904" lon="8.341222699469771"><ele>144.00000000000003</ele><time>2026-03-28T13:18:00.999Z</time></trkpt><trkpt lat="44.748083377797094" lon="8.341173885933573"><ele>144.0</ele><time>2026-03-28T13:18:05.999Z</time></trkpt><trkpt lat="44.748020494365925" lon="8.341114549817199"><ele>144.0</ele><time>2026-03-28T13:18:11.999Z</time></trkpt><trkpt lat="44.74796153011191" lon="8.34106028225678"><ele>144.0</ele><time>2026-03-28T13:18:17.999Z</time></trkpt><trkpt lat="44.74789792071633" lon="8.341004052371805"><ele>144.0</ele><time>2026-03-28T13:18:23.999Z</time></trkpt><trkpt lat="44.747843136103334" lon="8.340951403152069"><ele>144.00000000000003</ele><time>2026-03-28T13:18:28.999Z</time></trkpt><trkpt lat="44.7477856931036" lon="8.340889452775528"><ele>144.0</ele><time>2026-03-28T13:18:34.999Z</time></trkpt><trkpt lat="44.747722956168104" lon="8.340835704764208"><ele>144.25</ele><time>2026-03-28T13:18:40.999Z</time></trkpt><trkpt lat="44.74766084967672" lon="8.340777137476723"><ele>144.5</ele><time>2026-03-28T13:18:46.999Z</time></trkpt><trkpt lat="44.7476026199306" lon="8.340718286263828"><ele>144.75</ele><time>2026-03-28T13:18:52.999Z</time></trkpt><trkpt lat="44.747549608558714" lon="8.340662223036754"><ele>145.0</ele><time>2026-03-28T13:18:59Z</time></trkpt><trkpt lat="44.74739220544013" lon="8.33989790244395"><ele>144.71428571428572</ele><time>2026-03-28T13:20:00.999Z</time></trkpt><trkpt lat="44.747334474997" lon="8.339837026296761"><ele>144.42857142857144</ele><time>2026-03-28T13:20:06.999Z</time></trkpt><trkpt lat="44.7472802456642" lon="8.339769532131724"><ele>144.14285714285714</ele><time>2026-03-28T13:20:12.999Z</time></trkpt><trkpt lat="44.74722197567963" lon="8.33970026608572"><ele>143.85714285714286</ele><time>2026-03-28T13:20:19.999Z</time></trkpt><trkpt lat="44.74716380840416" lon="8.339633158193507"><ele>143.57142857142856</ele><time>2026-03-28T13:20:25.999Z</time></trkpt><trkpt lat="44.74711192294215" lon="8.339576689988277"><ele>143.28571428571428</ele><time>2026-03-28T13:20:31.999Z</time></trkpt><trkpt lat="44.74705816190714" lon="8.339507422570401"><ele>143.0</ele><time>2026-03-28T13:20:37.999Z</time></trkpt><trkpt lat="44.74700404382261" lon="8.339442254203018"><ele>142.66666666666666</ele><time>2026-03-28T13:20:43.999Z</time></trkpt><trkpt lat="44.74694919808685" lon="8.339377287987384"><ele>142.33333333333334</ele><time>2026-03-28T13:20:49.999Z</time></trkpt><trkpt lat="44.74690026963627" lon="8.339321358606739"><ele>142.0</ele><time>2026-03-28T13:20:54.999Z</time></trkpt><trkpt lat="44.746284938321196" lon="8.338591417305693"><ele>142.28571428571428</ele><time>2026-03-28T13:22:00.999Z</time></trkpt><trkpt lat="44.74621537479056" lon="8.33859502725718"><ele>142.57142857142856</ele><time>2026-03-28T13:22:06.999Z</time></trkpt><trkpt lat="44.74615483772179" lon="8.338654258978185"><ele>142.85714285714286</ele><time>2026-03-28T13:22:12.999Z</time></trkpt><trkpt lat="44.7461058434146" lon="8.338718439090432"><ele>143.14285714285714</ele><time>2026-03-28T13:22:18.999Z</time></trkpt><trkpt lat="44.74606043403991" lon="8.33878687599666"><ele>143.42857142857144</ele><time>2026-03-28T13:22:24.999Z</time></trkpt><trkpt lat="44.74601423455731" lon="8.338852269458302"><ele>143.71428571428572</ele><time>2026-03-28T13:22:30.999Z</time></trkpt><trkpt lat="44.74596375062909" lon="8.338919658783851"><ele>144.0</ele><time>2026-03-28T13:22:36.999Z</time></trkpt><trkpt lat="44.74591087372778" lon="8.33899271620891"><ele>144.0</ele><time>2026-03-28T13:22:42.999Z</time></trkpt><trkpt lat="44.745867446500675" lon="8.339059390547872"><ele>144.0</ele><time>2026-03-28T13:22:48.999Z</time></trkpt><trkpt lat="44.745811592030954" lon="8.33913262107044"><ele>144.0</ele><time>2026-03-28T13:22:54.999Z</time></trkpt><trkpt lat="44.74524532485966" lon="8.339942260559733"><ele>144.42857142857144</ele><time>2026-03-28T13:24:00.999Z</time></trkpt><trkpt lat="44.74519627004013" lon="8.340014405248509"><ele>144.85714285714286</ele><time>2026-03-28T13:24:06.999Z</time></trkpt><trkpt lat="44.745142654850234" lon="8.340086667532645"><ele>145.28571428571428</ele><time>2026-03-28T13:24:12.999Z</time></trkpt><trkpt lat="44.74509647066278" lon="8.340153509772568"><ele>145.71428571428572</ele><time>2026-03-28T13:24:18.999Z</time></trkpt><trkpt lat="44.74504789645418" lon="8.340225169134785"><ele>146.14285714285714</ele><time>2026-03-28T13:24:24.999Z</time></trkpt><trkpt lat="44.74499888005085" lon="8.340287668066427"><ele>146.57142857142858</ele><time>2026-03-28T13:24:29.999Z</time></trkpt><trkpt lat="44.744951392779264" lon="8.34036352234338"><ele>147.0</ele><time>2026-03-28T13:24:35.999Z</time></trkpt><trkpt lat="44.74490317746832" lon="8.340435588686654"><ele>147.0</ele><time>2026-03-28T13:24:41.999Z</time></trkpt><trkpt lat="44.744854772937465" lon="8.340500680338323"><ele>147.0</ele><time>2026-03-28T13:24:47.999Z</time></trkpt><trkpt lat="44.74479849497298" lon="8.340569071825712"><ele>147.0</ele><time>2026-03-28T13:24:53.999Z</time></trkpt><trkpt lat="44.744751591242355" lon="8.340648518264215"><ele>147.0</ele><time>2026-03-28T13:24:59.999Z</time></trkpt><trkpt lat="44.74426200301552" lon="8.341341316928025"><ele>147.0</ele><time>2026-03-28T13:26:00.999Z</time></trkpt><trkpt lat="44.74420920426103" lon="8.34141128187406"><ele>147.0</ele><time>2026-03-28T13:26:06.999Z</time></trkpt><trkpt lat="44.744162460967935" lon="8.341474280144327"><ele>147.0</ele><time>2026-03-28T13:26:11.999Z</time></trkpt><trkpt lat="44.74411106454278" lon="8.341550896225083"><ele>147.0</ele><time>2026-03-28T13:26:17.999Z</time></trkpt><trkpt lat="44.74404467929472" lon="8.34160108094185"><ele>147.0</ele><time>2026-03-28T13:26:23.999Z</time></trkpt><trkpt lat="44.743975074100746" lon="8.341613647458832"><ele>147.0</ele><time>2026-03-28T13:26:29.999Z</time></trkpt><trkpt lat="44.74391399264285" lon="8.341573371723417"><ele>147.0</ele><time>2026-03-28T13:26:35.999Z</time></trkpt><trkpt lat="44.74385522150098" lon="8.34153458228918"><ele>147.0</ele><time>2026-03-28T13:26:40.999Z</time></trkpt><trkpt lat="44.74379450082412" lon="8.341481863300226"><ele>147.0</ele><time>2026-03-28T13:26:46.999Z</time></trkpt><trkpt lat="44.743738608181516" lon="8.341428536081843"><ele>147.0</ele><time>2026-03-28T13:26:51.999Z</time></trkpt><trkpt lat="44.74368359631659" lon="8.341378132245044"><ele>147.0</ele><time>2026-03-28T13:26:56.999Z</time></trkpt><trkpt lat="44.743032016483625" lon="8.340758603529435"><ele>146.85714285714286</ele><time>2026-03-28T13:28:00.999Z</time></trkpt><trkpt lat="44.74296711013395" lon="8.340706477041527"><ele>146.71428571428572</ele><time>2026-03-28T13:28:06.999Z</time></trkpt><trkpt lat="44.742907556341855" lon="8.340642553476687"><ele>146.57142857142856</ele><time>2026-03-28T13:28:12.999Z</time></trkpt><trkpt lat="44.742848098388805" lon="8.340586854909423"><ele>146.42857142857144</ele><time>2026-03-28T13:28:18.999Z</time></trkpt><trkpt lat="44.74279133850645" lon="8.340527680813471"><ele>146.28571428571428</ele><time>2026-03-28T13:28:24.999Z</time></trkpt><trkpt lat="44.74273132388025" lon="8.34047298715365"><ele>146.14285714285714</ele><time>2026-03-28T13:28:30.999Z</time></trkpt><trkpt lat="44.742673548923705" lon="8.340416146241518"><ele>146.0</ele><time>2026-03-28T13:28:36.999Z</time></trkpt><trkpt lat="44.74261518263915" lon="8.340362519513087"><ele>146.0</ele><time>2026-03-28T13:28:42.999Z</time></trkpt><trkpt lat="44.74255251971749" lon="8.340309150423932"><ele>146.0</ele><time>2026-03-28T13:28:48.999Z</time></trkpt><trkpt lat="44.74249689452272" lon="8.340258224899525"><ele>146.0</ele><time>2026-03-28T13:28:54.999Z</time></trkpt><trkpt lat="44.74243409549178" lon="8.340222875964338"><ele>146.0</ele><time>2026-03-28T13:28:59.999Z</time></trkpt><trkpt lat="44.741827577037824" lon="8.339624323160233"><ele>146.14285714285714</ele><time>2026-03-28T13:30:00.999Z</time></trkpt><trkpt lat="44.74177235692962" lon="8.339573705996003"><ele>146.28571428571428</ele><time>2026-03-28T13:30:06.999Z</time></trkpt><trkpt lat="44.74171478365349" lon="8.339513818934376"><ele>146.42857142857144</ele><time>2026-03-28T13:30:12.999Z</time></trkpt><trkpt lat="44.741656912753314" lon="8.339459003641096"><ele>146.57142857142856</ele><time>2026-03-28T13:30:18.999Z</time></trkpt><trkpt lat="44.74160379957992" lon="8.339410558470789"><ele>146.71428571428572</ele><time>2026-03-28T13:30:23.999Z</time></trkpt><trkpt lat="44.74154743720201" lon="8.339349110461425"><ele>146.85714285714286</ele><time>2026-03-28T13:30:29.999Z</time></trkpt><trkpt lat="44.74148725670879" lon="8.339291152104494"><ele>147.0</ele><time>2026-03-28T13:30:35.999Z</time></trkpt><trkpt lat="44.74142960380693" lon="8.339234813795517"><ele>147.0</ele><time>2026-03-28T13:30:41.999Z</time></trkpt><trkpt lat="44.74137132414372" lon="8.339174005707806"><ele>147.0</ele><time>2026-03-28T13:30:47.999Z</time></trkpt><trkpt lat="44.74131997982817" lon="8.339119628327841"><ele>147.0</ele><time>2026-03-28T13:30:52.999Z</time></trkpt><trkpt lat="44.74125719083998" lon="8.339061711945671"><ele>147.0</ele><time>2026-03-28T13:30:58.999Z</time></trkpt><trkpt lat="44.74061682815353" lon="8.338483725602407"><ele>147.0</ele><time>2026-03-28T13:32:00.999Z</time></trkpt><trkpt lat="44.74055939767654" lon="8.33844732793085"><ele>147.0</ele><time>2026-03-28T13:32:05.999Z</time></trkpt><trkpt lat="44.74049636218304" lon="8.338399368691151"><ele>147.0</ele><time>2026-03-28T13:32:11.999Z</time></trkpt><trkpt lat="44.74044025583584" lon="8.338350604234307"><ele>147.0</ele><time>2026-03-28T13:32:17.999Z</time></trkpt><trkpt lat="44.740380468761025" lon="8.338309989354888"><ele>147.0</ele><time>2026-03-28T13:32:22.999Z</time></trkpt><trkpt lat="44.74032516484383" lon="8.338264570917442"><ele>147.0</ele><time>2026-03-28T13:32:28.999Z</time></trkpt><trkpt lat="44.74026430456409" lon="8.338216475418767"><ele>147.0</ele><time>2026-03-28T13:32:34.999Z</time></trkpt><trkpt lat="44.74020653516145" lon="8.33817885312613"><ele>147.0</ele><time>2026-03-28T13:32:40.999Z</time></trkpt><trkpt lat="44.74014116102093" lon="8.338137172801535"><ele>147.0</ele><time>2026-03-28T13:32:46.999Z</time></trkpt><trkpt lat="44.74007876849589" lon="8.338099435010658"><ele>147.0</ele><time>2026-03-28T13:32:52.999Z</time></trkpt><trkpt lat="44.74001701168143" lon="8.33806070795878"><ele>147.0</ele><time>2026-03-28T13:32:58.999Z</time></trkpt><trkpt lat="44.73936039366435" lon="8.337627430833376"><ele>147.71428571428572</ele><time>2026-03-28T13:34:01Z</time></trkpt><trkpt lat="44.739291377902994" lon="8.33758522357207"><ele>148.42857142857144</ele><time>2026-03-28T13:34:06.999Z</time></trkpt><trkpt lat="44.73921979771781" lon="8.337553203316686"><ele>149.14285714285714</ele><time>2026-03-28T13:34:12.999Z</time></trkpt><trkpt lat="44.739150392348705" lon="8.337524252117356"><ele>149.85714285714286</ele><time>2026-03-28T13:34:18.999Z</time></trkpt><trkpt lat="44.73908730773373" lon="8.337496522953884"><ele>150.57142857142858</ele><time>2026-03-28T13:34:23.999Z</time></trkpt><trkpt lat="44.73901771387854" lon="8.337469607666568"><ele>151.28571428571428</ele><time>2026-03-28T13:34:29.999Z</time></trkpt><trkpt lat="44.738957083250135" lon="8.337442603695038"><ele>152.0</ele><time>2026-03-28T13:34:34.999Z</time></trkpt><trkpt lat="44.7388973273039" lon="8.337412450991753"><ele>152.0</ele><time>2026-03-28T13:34:39.999Z</time></trkpt><trkpt lat="44.738822742313715" lon="8.337377202715635"><ele>152.0</ele><time>2026-03-28T13:34:45.999Z</time></trkpt><trkpt lat="44.738759909415165" lon="8.337352644206767"><ele>152.0</ele><time>2026-03-28T13:34:51.999Z</time></trkpt><trkpt lat="44.73869284579542" lon="8.33732475072478"><ele>152.0</ele><time>2026-03-28T13:34:57.999Z</time></trkpt><trkpt lat="44.73802978417822" lon="8.336951714513178"><ele>152.0</ele><time>2026-03-28T13:36:01Z</time></trkpt><trkpt lat="44.73796549370178" lon="8.336923288527384"><ele>152.0</ele><time>2026-03-28T13:36:08Z</time></trkpt><trkpt lat="44.73790451867765" lon="8.336899696693374"><ele>152.0</ele><time>2026-03-28T13:36:12.999Z</time></trkpt><trkpt lat="44.737841275224426" lon="8.336866329050151"><ele>152.0</ele><time>2026-03-28T13:36:18.999Z</time></trkpt><trkpt lat="44.737779890586204" lon="8.336843557222391"><ele>152.0</ele><time>2026-03-28T13:36:24.999Z</time></trkpt><trkpt lat="44.737711801130075" lon="8.336810868091952"><ele>152.0</ele><time>2026-03-28T13:36:29.999Z</time></trkpt><trkpt lat="44.73764132092197" lon="8.336771983386079"><ele>152.0</ele><time>2026-03-28T13:36:36.999Z</time></trkpt><trkpt lat="44.73757395895824" lon="8.336750583398056"><ele>152.25</ele><time>2026-03-28T13:36:43.999Z</time></trkpt><trkpt lat="44.73751402925168" lon="8.336710543627044"><ele>152.5</ele><time>2026-03-28T13:36:48.999Z</time></trkpt><trkpt lat="44.737444399517756" lon="8.336676007737399"><ele>152.75</ele><time>2026-03-28T13:36:53.999Z</time></trkpt><trkpt lat="44.73738319042162" lon="8.336647600835587"><ele>153.0</ele><time>2026-03-28T13:36:58.999Z</time></trkpt><trkpt lat="44.736784095236764" lon="8.336314680935873"><ele>153.0</ele><time>2026-03-28T13:38:01Z</time></trkpt><trkpt lat="44.736770932845054" lon="8.336214661276944"><ele>153.0</ele><time>2026-03-28T13:38:07Z</time></trkpt><trkpt lat="44.73674785749035" lon="8.336125992459374"><ele>153.0</ele><time>2026-03-28T13:38:14Z</time></trkpt><trkpt lat="44.736741065158164" lon="8.336037763031108"><ele>153.0</ele><time>2026-03-28T13:38:20.999Z</time></trkpt><trkpt lat="44.7367769565075" lon="8.335947779707865"><ele>153.0</ele><time>2026-03-28T13:38:25.999Z</time></trkpt><trkpt lat="44.73681313963686" lon="8.335871926649492"><ele>153.0</ele><time>2026-03-28T13:38:29.999Z</time></trkpt><trkpt lat="44.73686796311589" lon="8.335823900754738"><ele>153.0</ele><time>2026-03-28T13:38:34.999Z</time></trkpt><trkpt lat="44.73690948230326" lon="8.335750271646184"><ele>153.0</ele><time>2026-03-28T13:38:41.999Z</time></trkpt><trkpt lat="44.73700627073368" lon="8.335638122450465"><ele>153.0</ele><time>2026-03-28T13:40:21Z</time></trkpt></trkseg></trk></gpx>